Bharatpur
S.No. Kiosk Code Kiosk Name LSP Address Ph. No. Credit Limit Remaining Limit Active / Deactive Creation Date Deactivation Date Prepaid Limit Virtual Limit
1 431 CSC Mudhera CSC Vakrangee Bharatpur Rural Village-Mudhera Block-Rupbas Bharatpur  9887432656  Active  16-08-2012    0.00 
2 501 CSC Gopalgarh CSC Vakrangee Bharatpur Rural Village Gopalgarh  Block NAGAR  District BHARATPUR   9983757532  113  600  Active  10-10-2012    0.00 
3 742 CSC Seekri Chak No.1_WRS 2014-Aksh-BHARATPUR Village - Seekri Chak No. 1 Block - Nagar Dist. - Bharatpur  9828104120  Active  07-08-2014    -1935.49  0.00 
4 743 CSC Karhi_WRS 2014-Aksh-BHARATPUR Village - Karhi Block - Karhi Dist. - Bharatpur  9461694089  68  Active  07-08-2014    .99  0.00 
5 744 Vinod Kumar Sharma 2014-Aksh-BHARATPUR chudi market town nagar   Dist. - Bharatpur  9694431183  Active  07-08-2014    -92.07  0.00 
6 745 CSC Mainapura_WRS 2014-Aksh-BHARATPUR Village - Mainapura Block - Weir Dist. - Bharatpur  9414787522  Active  07-08-2014    0.00 
7 747 CSC Khera_WRS 2014-Aksh-BHARATPUR Village - Khera Block - Nadbai Dist. - Bharatpur  9057975797  Active  07-08-2014    .14  0.00 
8 748 CSC Janoothar_WRS 2014-Aksh-BHARATPUR Village - Janoothar Block - Deeg Dist. Bharatpur  9602813066  Active  07-08-2014    674.82  0.00 
9 788 Ravi Saini 2014-Aksh-BHARATPUR Near Buis Stand Rarah Tehsil Kumher Dist. Bharatpur  9785056392  Active  21-08-2014    .37  0.00 
10 791 Mahendra Kumar 2014-Aksh-BHARATPUR Court Campus Tehsil, Bayana Dist. - Bharatpur  9461100334  Active  21-08-2014    .42  0.00 
11 797 Pavnesh Kumar 2014-Aksh-BHARATPUR Near PNB bank Khanua Teh. Rupwas Dist. Bharatpur  9928771440  Active  21-08-2014    -147.36  0.00 
12 807 Dinesh Kumar Sharma 2014-Aksh-BHARATPUR Shyam Nagar  Colony Behind Central School Bharatpur  7790898199  Active  22-08-2014    12.96  0.00 
13 810 Nateen Singh 2014-Aksh-BHARATPUR Main Market Old Post  Office Pahari Tehsil  Disst. - Bharatpur  9783715200  20  Active  23-08-2014    5.47  0.00 
14 816 Ghanshyam Saini 2014-Aksh-BHARATPUR Main Market Sikri Tehisl - Nagar Disst. - Bharatpur  9785508730  Active  27-08-2014    335.15  0.00 
15 817 Sher Singh 2014-Aksh-BHARATPUR Hospital Ke Pass Uchchain Road Sear Bharatpur  9828607228  Active  27-08-2014    1.28  0.00 
16 818 Rakesh Kumar Sharma 2014-Aksh-BHARATPUR Prince Attachi House Deewan Mohalla  Kaman Bharatpur  9529480001  Active  27-08-2014    -.44  0.00 
17 819 Ashok Kumar 2014-Aksh-BHARATPUR VPO Bidyari  Tehsil 0 Bayana Bharatpur  9351939397  Active  27-08-2014    69.29  0.00 
18 855 Kamlesh Prasad Sharma 2014-Aksh-BHARATPUR Reliance Medicals Goal Baug road Bharatpur  8104525131  Active  08-09-2014    -689.54  0.00 
19 856 Fatte Krishna Gaur 2014-Aksh-BHARATPUR Bus Stand Jurhere  Tehsil - Kaman Disst. - Bharatpur  9649340809  Active  08-09-2014    44.03  0.00 
20 865 Nakul Raj 2014-Aksh-BHARATPUR Single Window E Sugam Kumher  Dist. Jaipur  9785037811  Active  11-09-2014    85.09  0.00 
21 895 Meena Devi 2014-Aksh-BHARATPUR Near Court  Deeg Bharatpur  9414584015  10000  Active  16-09-2014    35.03  0.00 
22 897 Mayuri emitra 2014-Aksh-BHARATPUR opposite govt.  hospital weir Bharatpur  9928585402  Active  16-09-2014    .28  0.00 
23 898 Mina Devi 2014-Aksh-BHARATPUR BNRGSK Panchayat Samiti DeeG Bharatpur  9829333108  Active  16-09-2014    155.98  0.00 
24 899 Sachin Khandelwal 2014-Aksh-BHARATPUR Near Devi Ram Kachori wala Choburja Market Bharatpur  9461695960  Active  16-09-2014    647.2  0.00 
25 901 Santosh Kumar 2014-Aksh-BHARATPUR Surajmal Nagar Near Center School Bharatpur  9887112441  Active  17-09-2014    691.89  0.00 
26 919 KRISHNA KANT 2014-Aksh-BHARATPUR Ram Nagar Colony Bhartpur   7792001955  Active  19-09-2014    -8.4  0.00 
27 932 Zuber Khan 2014-Aksh-BHARATPUR Cheetha Wali Gali Chaburja Bazar Bharatpur  9462484927  Active  25-09-2014    580.94  0.00 
28 933 Ashok Kumar 2014-Aksh-BHARATPUR Mastana Music Center Old Post Office  Bharatpur  9887102523  717  Active  25-09-2014    59.92  0.00 
29 934 Vinita 2014-Aksh-BHARATPUR Khaluja Hospital Ke pass Jawahar Nagar Bharatpur  7597156959  Active  25-09-2014    -.19  0.00 
30 966 Gulap Khandelwal 2014-Aksh-BHARATPUR Peer Mohalla  kaman Bharatpur  05640250100  40000  1778  Active  09-10-2014    82.79  0.00 
31 982 Manoj sharma 2014-Aksh-BHARATPUR Peer mohalla ward no 17 Kama Kaman Bharatpur  05640-251101  Active  13-10-2014    -19.59  0.00 
32 999 SUNIL KUMAR 2014-Aksh-BHARATPUR A32 JAWAHAR NAGAR  BHARATPUR   9414303388  Active  22-10-2014    .87  0.00 
33 1000 ABHAY KUMAR JAIN 2014-Aksh-BHARATPUR INFRONT OF COURT BKAMAN  BHARATPUR   9875000161  81  Active  22-10-2014    227.23  0.00 
34 1001 RAJENDRA KUMAR 2014-Aksh-BHARATPUR prajapati mohalla teh nagar  BHARATPUR   9829829721  8333  Active  22-10-2014    404.92  0.00 
35 1002 Vishnu Kumar 2014-Aksh-BHARATPUR Tehsil Campus Bayana  Bharatpur   9672086606  Active  27-10-2014    .73  0.00 
36 1003 Suresh Sharma 2014-Aksh-BHARATPUR Tehsil Parisar  Kaman Bharatpur  9413672361  Active  27-10-2014    -.94  0.00 
37 1004 RITESH GARG 2014-Aksh-BHARATPUR Teshsil Campus Weir    9509489583  Active  27-10-2014    309.06  0.00 
38 1005 Surendra Sharma 2014-Aksh-BHARATPUR Tehsil- Bhusawar Bharatpur- 321406   05643271000  Active  27-10-2014    .08  0.00 
39 1006 MEENA DEVI 2014-Aksh-BHARATPUR Tehsil Campus Deeg   8058565580  Active  27-10-2014    .83  0.00 
40 1008 Deepak Kumar Jain 2014-Aksh-BHARATPUR Tehsil Office Bharatpur    9929929920  Active  27-10-2014    .77  0.00 
41 1029 Jitendra Kumar 2014-Aksh-BHARATPUR near bank of baroda  bayana Bharatpur  9783283874  713  Active  03-11-2014    164.93  0.00 
42 1030 Amit Sharma 2014-Aksh-BHARATPUR Near Railway Station Bharatpur   9461582799  Active  03-11-2014    -52.01  0.00 
43 1031 Gaurav Sharma 2014-Aksh-BHARATPUR New Santan Dharam  Market Bharatpur  9414375500  40000  Active  03-11-2014    126.41  0.00 
44 1038 Dharam Chand 2014-Aksh-BHARATPUR OLD PAHADI ROAD BILOD STAND KAMAN BHARATPUR    9950659910  Active  06-11-2014    -.69  0.00 
45 1046 Sanjeev Kumar Sharma 2014-Aksh-BHARATPUR MUDGAL DIGITAL STUDIO NEW MANDI BHARATPUR    9166944376  Active  20-11-2014    1223.12  0.00 
46 1048 Purshottam 2014-Aksh-BHARATPUR NEAR PANCHAYAT SAMITI ROOPWAS DIST BHARATPUR RAJASTHAN    8058252616  -105  Active  20-11-2014    1334.85  0.00 
47 1052 Dinesh Kumar Sharma 2014-Aksh-BHARATPUR JAIN MANDIR SE SAMNE PAHADI DIST BHARATPUR    9610107548  Active  21-11-2014    37.06  0.00 
48 1073 Ram Kunwar 2014-Aksh-BHARATPUR MAIN MARKET SATAVADI DIST BHARATPUR RAJASTHAN    9001660241  Active  26-11-2014    .8  0.00 
49 1075 Mayank Jain 2014-Aksh-BHARATPUR NEAR JAIN MANDIR SEWAR ROAD BHARATPUR RAJASTHAN    9166772669  51  Active  27-11-2014    189.67  0.00 
50 1079 Aksh Optifibre 2014-Aksh-BHARATPUR Room No.55  Dist. collectrate  Bharatpur  9414059654  1629  Active  27-11-2014    6870.21  0.00 
51 1081 Dharmveer Singh 2014-Aksh-BHARATPUR In front of Santoshi Temple Surajpole Gate Bharatpur  9529040674  10000  84  Active  27-11-2014    .26  0.00 
52 1082 Aksh Rajeev Gandhi Seva Kendra Bharatpur 2014-Aksh-BHARATPUR Bharat Nirmaan Rajeev Gandhi Seva Kendra Bharatpur   9414059654  20000  10  Active  27-11-2014    12.14  0.00 
53 1092 Jyoti Sharma 2014-Aksh-BHARATPUR TEHSIL NADBAI BHARATPUR    9024903752  Active  01-12-2014    .79  0.00 
54 1094 Rajeswari Devi 2014-Aksh-BHARATPUR MAIN MARKET UCHCHAIN TEH ROOPWAS DIST BHARATPUR RAJASTHAN    9887433476  Active  01-12-2014    .26  0.00 
55 1095 Ghanshyam Singhal 2014-Aksh-BHARATPUR BAPU MARKET NAGAT DIST BHARATPUR RAJASTHAN    9983956579  Active  01-12-2014    -86.67  0.00 
56 1097 Umesh Tiwari 2014-Aksh-BHARATPUR MURWARA ROAD SUBHASH NAGAR BHARATPUR RAJASTHAN    9413300272  Active  01-12-2014    .62  0.00 
57 1098 Vineet Kumar 2014-Aksh-BHARATPUR BIHARI GALI RUDAWAL DIST BHARATPUR RAJASTHAN    9649013300  Active  02-12-2014    .64  0.00 
58 1105 Aksh Optifibre Limited 2014-Aksh-BHARATPUR BNSK HQ TEHSIL ROOPWAS DISTRICT BHARATPUR     9694420125  Active  05-12-2014    8.04  0.00 
59 1112 Mohit Kumar Gupta 2014-Aksh-BHARATPUR 122 RAJENDRA NAGAR BHARATPUR RAJASTHAN    9414692950  Active  11-12-2014    862.89  0.00 
60 1113 Durga Prasad 2014-Aksh-BHARATPUR RADHA COLONY, NEAR RADHA BALLABH TEMPLE  KAMAN, BHARATPUR undefined  9829121852  Active  11-12-2014    .82  0.00 
61 1121 Hemant Kumar Garg 2014-Aksh-BHARATPUR SHOP N0 97 NEAR OLD COLLECTARY BHARATPUR    9782505764  633  Active  17-12-2014    87.25  0.00 
62 1131 Naeem Khan 2014-Aksh-BHARATPUR ANAND NAGAR COLONY BHARATPUR RAJASTHAN    9694946814  Active  19-12-2014    .55  0.00 
63 1142 Anil Kumar jindal 2014-Aksh-BHARATPUR In front of Sindhi dharmashala Gate Road  Bharatpur  9694139121  240000  317  Active  22-12-2014    .51  0.00 
64 1143 Dilip Kumar Pahadia 2014-Aksh-BHARATPUR Old Anaj Mandi Bhusawar Bharatpur  9875057615  90000  806  Active  22-12-2014    212.33  0.00 
65 1145 Rama eMitra Centre 2014-Aksh-BHARATPUR Basan Gate Chouraha Bharatpur   9667621874  120000  393  Active  22-12-2014    188.99  0.00 
66 1146 Gurumeet eMitra 2014-Aksh-BHARATPUR Bizli Ghar Collectrate Road  Bharatpur  05644220610  40000  61  Active  22-12-2014    71.33  0.00 
67 1147 Aditiya emitra kiosk 2014-Aksh-BHARATPUR Near Devi Temple Ranjeet Nagar Bharatpur  9461336851  40000  260  Active  22-12-2014    95.18  0.00 
68 1148 Jeetendra Emitra Center 2014-Aksh-BHARATPUR Golpura Road, Subhash nagar behind central bus stand Bharatpur  9414893789  Active  22-12-2014    23.62  0.00 
69 1150 Lokesh Sharma 2014-Aksh-BHARATPUR Infront of RTO Office Anah Bharatpur  9887959411  90000  58  Active  22-12-2014    1204.01  0.00 
70 1152 Manish emitra Center 2014-Aksh-BHARATPUR Manish emitra center Mahal khas road kila  Bharatpur  9982920850  Active  22-12-2014    257.13  0.00 
71 1153 Manoj Chahar 2014-Aksh-BHARATPUR Infornt of MSJ College 23-Geeta Colony  Bharatpur  9680838811  Active  22-12-2014    34.49  0.00 
72 1154 Manoj Khandelwal 2014-Aksh-BHARATPUR Near Kiran Niwas home ke  goverdhan gate  Bharatpur  9783001714  154  Active  22-12-2014    11.83  0.00 
73 1155 Manoj emitra Center 2014-Aksh-BHARATPUR Pratap colony Kumer gate Bharatpur  8058079654  Active  22-12-2014    16.61  0.00 
74 1156 Mohit Khandelwal 2014-Aksh-BHARATPUR Chhote Ramji ke samne Kumher  Bharatpur  8875075750  Active  22-12-2014    .61  0.00 
75 1157 Narendra kumar Jindal 2014-Aksh-BHARATPUR Behind of ganga Mandir Chohara near Budh ki hat Bharatpur  9414344163  140000  136  Active  22-12-2014    .41  0.00 
76 1158 Paritosh 2014-Aksh-BHARATPUR 28, shoping center  Krishna Nagar Bharatpur  9828102544  83  Active  22-12-2014    .27  0.00 
77 1160 Vinay Goyal 2014-Aksh-BHARATPUR Kumher Road Bus Stand ke Samne katra Nadbai Bharatpur  9785615572  90000  460  Active  22-12-2014    91.11  0.00 
78 1161 Atul Emitra 2014-Aksh-BHARATPUR Gandhi Chowk  Bayana Bharatpur  9414485885  40000  437  Active  22-12-2014    95.03  0.00 
79 1162 Banvari Shrama Emitra Bayana 2014-Aksh-BHARATPUR Cachari Road  Bayana Bharatpur  9887241956  413  Active  22-12-2014    .72  0.00 
80 1163 Bhoodev Goyal Emitra Center Nadbai 2014-Aksh-BHARATPUR Near APS School ware House Road nadbai Bharatpur  9024920267  40000  492  Active  22-12-2014    29.2  0.00 
81 1164 Chandra Shekhar Sharma 2014-Aksh-BHARATPUR Near Panchayat Samiti  Sewar Bharatpur  9782565377  30000  180  Active  22-12-2014    342.05  0.00 
82 1165 Mukesh emitra Center 2014-Aksh-BHARATPUR Near Ghanta Ghar Deeg Bharatpur  9414870877  40000  3836  Active  22-12-2014    342.18  0.00 
83 1167 Nidhi eMitra Center 2014-Aksh-BHARATPUR Krishna Nagar Bharatpur   9828265217  Active  22-12-2014    0.00 
84 1169 Rohit eMitra Center 2014-Aksh-BHARATPUR Arya Samaj Road Bharatpur   9252066443  40000  1962  Active  22-12-2014    34.07  0.00 
85 1170 Chankee Arora 2014-Aksh-BHARATPUR Ridhi Sidhi complex infront of thana  Nadbai Bharatpur  9166437449  Active  22-12-2014    -.81  0.00 
86 1172 Deepak Emitra Center 2014-Aksh-BHARATPUR Tehsil parisar ke andar Nagar Bharatpur  9887835434  381  Active  22-12-2014    2084.67  0.00 
87 1173 Suresh Sharma emitra Center 2014-Aksh-BHARATPUR Near New Tehsil Kaman Bharatpur   9413672361  Active  22-12-2014    -28.5  0.00 
88 1174 Mahesh Sharma 2014-Aksh-BHARATPUR New Road  Deeg Bharatpur  05641220820  90000  1872  Active  22-12-2014    611.49  0.00 
89 1177 Yatendra Kumar 2014-Aksh-BHARATPUR Nomish Road Bharatpur   9667179064  Active  22-12-2014    -77.63  0.00 
90 1178 Deepak Gupta 2014-Aksh-BHARATPUR Middle School Ki Gali Deeg Bharatpur  9887228511  400  Active  22-12-2014    224.17  0.00 
91 1179 Pramod Singh 2014-Aksh-BHARATPUR Near Saini Mishtan Bhandar Bus stand, Bharatpur   9887764466  90000  Active  22-12-2014    -1213.51  0.00 
92 1180 Lalit Khatri 2014-Aksh-BHARATPUR Near Shamshan Ghat Subhash Colony Bharatpur  9413303004  1668  Active  22-12-2014    .96  0.00 
93 1181 Pankaj Jain 2014-Aksh-BHARATPUR Jain Computers Katra Nadbai Bharatpur  05643276714  40000  204  Active  22-12-2014    .99  0.00 
94 1182 Rachna Sharma 2014-Aksh-BHARATPUR Anah Gate Bajariya Bharatpur   9785099684  30000  1336  Active  22-12-2014    320.96  0.00 
95 1183 MOHAN LAL GUPTA 2014-Aksh-BHARATPUR MELA GROUND NAGAR NAGAR, BHARATPUR  9928352201  Active  22-12-2014    241.5  0.00 
96 1184 Mangal Singh 2014-Aksh-BHARATPUR Near Neha Clinic Vijaynagar Saras Circle Bharatpur  9983449155  151  Active  22-12-2014    2.49  0.00 
97 1185 Deepak Verma 2014-Aksh-BHARATPUR Near P N B Bank Kumher Bharatpur  9887512513  Active  22-12-2014    2118.44  0.00 
98 1186 Madan Mohan 2014-Aksh-BHARATPUR New Bust Stand Weir Bharatpur   9468664073  15000  Active  22-12-2014    .75  0.00 
99 1187 Rakesh Sharma 2014-Aksh-BHARATPUR Madarpur Road Infront of Podar Kothi Bharatpur   9887353542  90000  186  Active  22-12-2014    76.86  0.00 
100 1188 Neeraj 2014-Aksh-BHARATPUR Super Market  GPF Office Ke Samne Bharatpur  9680702196  40000  171  Active  22-12-2014    436.34  0.00 
101 1189 Deepak Raj 2014-Aksh-BHARATPUR 109 Sewar Bazar Sewar Bharatpur  9928328689  10000  1609  Active  22-12-2014    .17  0.00 
102 1191 Pooja Khandelwal 2014-Aksh-BHARATPUR B 4 Jawahar Nagar Bharatpur   05644220008  69  Active  22-12-2014    96.66  0.00 
103 1192 Rupesh Kumar 2014-Aksh-BHARATPUR Ram Singh Ka Nagla Bajariya Bharatpur  9785362498  15000  1300  Active  22-12-2014    .14  0.00 
104 1194 Manoj Kumar 2014-Aksh-BHARATPUR Saharai Road Deeg Bharatpur  9983406728  Active  22-12-2014    -.04  0.00 
105 1195 Ravi Shankar Sharma 2014-Aksh-BHARATPUR Goverdhan Road Deeg Bharatpur  8058568722  10000  2577  Active  22-12-2014    29.95  0.00 
106 1196 Veerendra Singh 2014-Aksh-BHARATPUR Near S.P. Office Bharatpur   9887002112  1751  Active  22-12-2014    105.95  0.00 
107 1197 Ritvis Cyber World 2014-Aksh-BHARATPUR 475 SPM Nagar Bharatpur   9784648494  Active  22-12-2014    357.27  0.00 
108 1199 Sudhir Kumar Sharma 2014-Aksh-BHARATPUR BNRGSK Panchayat Samiti Nadwai  9887982284  Active  22-12-2014    17.66  0.00 
109 1201 Hitesh Kumar 2014-Aksh-BHARATPUR BNRGSK Panchayat Samiti Kaman  9887242675  15000  360  Active  22-12-2014    .96  0.00 
110 1202 Honey Saraswat 2014-Aksh-BHARATPUR BNRGSK Panchayat Smiti Bayana  9414942200  Active  22-12-2014    67.82  0.00 
111 1203 Manvendra 2014-Aksh-BHARATPUR 36, Shopping Center Krishna Nagar Bharatpur   9799348952  Active  22-12-2014    -.36  0.00 
112 1204 Pankaj Yadav 2014-Aksh-BHARATPUR Near Suraj Pole Gate Gopal Garh Bharatpur   9782597856  Active  22-12-2014    33.87  0.00 
113 1207 Rajendra Goyal 2014-Aksh-BHARATPUR Near Power House Bharatpur   9530445152  Active  22-12-2014    -148.83  0.00 
114 1208 Pradeep Kaushik 2014-Aksh-BHARATPUR Nabab Gali Mathura Gate Bharatpur   9413304237  Active  22-12-2014    4.78  0.00 
115 1210 Dinesh Kumar Goyal 2014-Aksh-BHARATPUR Sadar Bazar Kaman  Bharatpur   9351721784  Active  22-12-2014    .31  0.00 
116 1211 Ravi Prakash 2014-Aksh-BHARATPUR Old Sabji Mandi Near Main Post Office Bayana Bharatpur  9460174979  Active  22-12-2014    .73  0.00 
117 1212 Sushil Shukla 2014-Aksh-BHARATPUR A-12 Ranjeet Nagar Bharatpur   9460012395  303  Active  22-12-2014    42.47  0.00 
118 1213 Hirendra Kumar 2014-Aksh-BHARATPUR Near S.B.I. Bank  Kumhar Gate  Bharatpur  9667153781  Active  22-12-2014    260.44  0.00 
119 1215 Praveen Kumar 2014-Aksh-BHARATPUR Infornt of Police Station  Nadbai Bharatpur  9461694089  Active  22-12-2014    35.15  0.00 
120 1216 Devendra Pal 2014-Aksh-BHARATPUR Kasgang Road Nadabi Bharatpur   9785467573  14  Active  22-12-2014    51.33  0.00 
121 1217 Arun Kumar Saxena 2014-Aksh-BHARATPUR Near Mahaveer Public School Rundhiya Nagar Bharatpur  9468885839  Active  22-12-2014    491.17  0.00 
122 1223 Aksh Optifiber Limited 2014-Aksh-BHARATPUR JILA UDHYOG KENDRA BHARATPUR RAJASTHAN     01412770085  Active  25-12-2014    170.04  0.00 
123 1230 Aslam 2014-Aksh-BHARATPUR BNRGSK Panchayat Samiti Nagar  9982090666  16  Active  25-12-2014    141.68  0.00 
124 1255 Ganesh Dutt Mishra 2014-Aksh-BHARATPUR GOPALGHAR BHARATPUR    9680714485  Active  09-01-2015    .06  0.00 
125 1258 Ram Mohan 2014-Aksh-BHARATPUR ANHA  GATE BAJARIYA BHARATPUR    8387978336  Active  09-01-2015    .19  0.00 
126 1259 Daniel 2014-Aksh-BHARATPUR OUTSIDE  SURAJ POLE GATE BHARATPUR   9783863436  220  Active  09-01-2015    52.62  0.00 
127 1260 Pankaj Kumar Koli 2014-Aksh-BHARATPUR RAJEEV GNADHI SEVA KENDRA  AKHAIGAR NADBAI BHARATPUR   9785196307  Active  09-01-2015    43.01  0.00 
128 1265 Satyendra Singh 2014-Aksh-BHARATPUR VEAR HOUSE ROAD NEAR POST  OFFICE, NADABI BHARATPUR   9875200277  640  Active  10-01-2015    387.47  0.00 
129 1266 Rajkumari Rajora 2014-Aksh-BHARATPUR COMPUTECH COMPUTER CENTER  NEAR KHADHI A SHARAM WEIR DIST BHARATPUR  9001733488  1248  Active  10-01-2015    165.51  0.00 
130 1267 Pavan Kumar 2014-Aksh-BHARATPUR ANHA GATE BAJARIYA BHARATPUR    9414000016  1198  Active  10-01-2015    1829  0.00 
131 1271 Azad Khan 2014-Aksh-BHARATPUR TESHIL CAMPUS NAGAR BHARATPUR    9887712794  29  Active  16-01-2015    .6  0.00 
132 1281 JIYA RAHMAN 2014-Aksh-BHARATPUR Jiya rahaman emitra center babu bazar Bhartpur   9829753722  Active  20-01-2015    -86.19  0.00 
133 1282 Ashok Kumar Sharma 2014-Aksh-BHARATPUR MAIN MARKET NEAR POLICE CHOKI DEEG BHARATPUR    9351329943  Active  20-01-2015    .85  0.00 
134 1316 Dinesh Chand 2014-Aksh-BHARATPUR ATAL SEWA KENDRA JAGHINA SEWAR BHARATPUR RAJASTHAN    9784114403  Active  29-01-2015    .92  0.00 
135 1317 Bholu Ram Sharma 2014-Aksh-BHARATPUR ATAL SEWA KENDRA AKTA BHARATPUR RAJASTHAN    8058200671  Active  29-01-2015    .9  0.00 
136 1332 Praveen Kumar 2014-Aksh-BHARATPUR ATAL SAMPARK KENDRA USRANI KUMHER BHARATPUR RAJASTHAN    9785506082  Active  03-02-2015    -.56  0.00 
137 1338 Laxmi Narayan Yadav 2014-Aksh-BHARATPUR 129 DEEWKAMAN BHARATPUR RAJASTHANAN MOHALLA  KAMAN BHARATPUR RAJASTHAN   9660975900  138  Active  04-02-2015    322.17  0.00 
138 1339 Bijendra Singh Gurjar 2014-Aksh-BHARATPUR GANDHI CHAUK BAYANA  BHARATPUR RAJASTHAN   9351950965  Active  04-02-2015    4338.7  0.00 
139 1341 Sanjay Kumar Saini 2014-Aksh-BHARATPUR OUT SIDE SOORAJPOL GATE BHARATPUR RAJASTHAN    9529192492  Active  04-02-2015    135.25  0.00 
140 1378 Veerendra Kumar 2014-Aksh-BHARATPUR VPO KALSARA TEH BAYANA BHARATPUR RAJASTHAN    9783335317  Active  09-02-2015    .78  0.00 
141 1389 Rajesh Kumar 2014-Aksh-BHARATPUR KUMHER ROAD NADBAI BHARATPUR RAJASTHAN    9782848895  Active  18-02-2015    .36  0.00 
142 1391 Varish 2014-Aksh-BHARATPUR RAJEEV GANDHI KENDRA  GULPARA NAGAR BHARATPUR RAJASTHAN   9772003536  Active  18-02-2015    .48  0.00 
143 1392 Mausam Khan 2014-Aksh-BHARATPUR RAJEEV GANDHI Kendra Samler Pahari Nagar Bharatpur Rajasthan    8094101616  Active  18-02-2015    .65  0.00 
144 1393 Prateek Singhal 2014-Aksh-BHARATPUR STATE BANK KI GALI  DEEVAN MOHALLA KAMANSTATE BANK KI GALI DEEVAN MOHALLA KAMAN BHARATPUR RAJAS   9529208400  68  Active  18-02-2015    88.08  0.00 
145 1394 Krishan Murari 2014-Aksh-BHARATPUR MADHUR COMPUTERS ANAH GATE BHARATPUR RAJASTHAN    9414376540  Active  18-02-2015    85.34  0.00 
146 1395 Shyam Sundar 2014-Aksh-BHARATPUR KISHORI PAYASA MOHALLA KAMAN BHARATPUR RAJASTHAN    8290431006  Active  18-02-2015    9.48  0.00 
147 1425 Umesh Chand 2014-Aksh-BHARATPUR ATAL SEWA KENDRA MATUKI TEH. KAMAN DIST BHARATPUR RAJASTHAN    9828130014  Active  27-02-2015    .44  0.00 
148 1428 Anil Kumar Sharma 2014-Aksh-BHARATPUR KAMLA ROAD BASAN GATE BHARATPURRAJASTHAN    9782505905  Active  02-03-2015    .89  0.00 
149 1429 Jagdish Prasad Sharma 2014-Aksh-BHARATPUR NEAR GIRLSSCHOOL PAHARI ROAD KAMAN BHARATPUR RAJASTHAN    05640251351  Active  02-03-2015    174.01  0.00 
150 1431 Bharat Singh 2014-Aksh-BHARATPUR ATAL SEWA KENDRA SIRAS TEH. WEIR DIST BHARATPUR RAJASTHAN    9660347923  Active  02-03-2015    .09  0.00 
151 1433 Daulat Singh 2014-Aksh-BHARATPUR BRIJ NAGAR BHARATPUR RAJASTHAN    9667844838  Active  02-03-2015    .98  0.00 
152 1443 Dharmendra Singh 2014-Aksh-BHARATPUR ATAL SEWA KENDRA DAURDA TEHSIL ROOPWAS Bharatpur    9587363073  Active  03-03-2015    .43  0.00 
153 1444 Brij Mohan 2014-Aksh-BHARATPUR ATAL SAMPARK KENDRA KHOH DEEG Bharatpur    9887685567  Active  03-03-2015    633.93  0.00 
154 1452 Omprakash 2014-Aksh-BHARATPUR BANSI KALAN BUS STAND Teh Sewar Dist Bharatpur Rajasthan    9887493560  Active  11-03-2015    .46  0.00 
155 1453 Hitesh Kumar 2014-Aksh-BHARATPUR SINGLE WINDOW E SUGAM TEHSIL PAHARI DISST BHARATPUR    9251002005  Active  12-03-2015    .34  0.00 
156 1455 Yahaya 2014-Aksh-BHARATPUR ATAL SEWA KENDRA NOGAWAN BAMNI TEH KAMAN BHARATPUR RAJASTHAN    9828412828  Active  13-03-2015    143.61  0.00 
157 1459 Kuldeep Singh 2014-Aksh-BHARATPUR ATAL SEWA KENDRA GANGROLI TEH. WEIR DIST BHARATPUR    9667234914  Active  16-03-2015    .73  0.00 
158 1465 Jagdish Singh 2014-Aksh-BHARATPUR ATAL SEWA KENDRA CHICHANA    7691036392  Active  19-03-2015    -803.26  0.00 
159 1466 Nyaj Mohammad 2014-Aksh-BHARATPUR Nagar,Fatehpur Kala Fatehpur Kala   9549890604  Active  19-03-2015    92.96  0.00 
160 1467 Deepak Singh 2014-Aksh-BHARATPUR ATAL SEWA KENDRA JALALAPUR TEH. NAGAR BHARATPUR    9928319699  Active  19-03-2015    .58  0.00 
161 1468 Babu Lal 2014-Aksh-BHARATPUR Atal Sewa Kendra,Sihawali Nagar   8239112676  Active  19-03-2015    .96  0.00 
162 1469 Naresh Kumar Dhadoriya 2014-Aksh-BHARATPUR ATAL SEWA KENDRA ANDHIYARI TEH. RUPBAS Bharatpur    8058984002  60  Active  19-03-2015    386.27  0.00 
163 1470 Neeraj 2014-Aksh-BHARATPUR ATAL SEWA KENDRA SONGAWN TEH.DEEG    8058222137  18  Active  19-03-2015    76.58  0.00 
164 1472 Aksh Optifibre Limited 2014-Aksh-BHARATPUR A.En Office,Old Power House Bharatpur   9887877254  Active  20-03-2015    75.9  0.00 
165 1478 Lakhan Singh 2014-Aksh-BHARATPUR ATAL SEWA KENDRA BADANGARH TEH. DEEG BHARATPUR    9982665647  Active  23-03-2015    .26  0.00 
166 1505 Pushapendra Kumar Sharma 2014-Aksh-BHARATPUR ATAL SEWA KENDRA PICHUNA     9694806607  Active  25-03-2015    -172.58  0.00 
167 1506 Brijmohan Singh Maggo 2014-Aksh-BHARATPUR ANAH GATE BAJARIYA BHARATPUR Rajasthan    7615801777  Active  25-03-2015    -149.33  0.00 
168 1507 Gurmeet Singh 2014-Aksh-BHARATPUR WARD N0 24 GOLBAG ROAD MATHURA GATE BHARATPUR    9587000115  49  Active  25-03-2015    332.21  0.00 
169 1508 Ajeet Singh 2014-Aksh-BHARATPUR ATAL SEWA KENDRA PATHENA THE. WEIR BHARATPUR RAJASTHAN    9887515038  Active  25-03-2015    .26  0.00 
170 1509 Vishnu Kumar Gupta 2014-Aksh-BHARATPUR ATAL SEVA KENDRA RARAH    9950780243  Active  25-03-2015    -33.93  0.00 
171 1510 Radhe Shyam Rajpoot 2014-Aksh-BHARATPUR ATAL SEWA KENDRA GOGERA TEH .BHUSAWAR    9413837008  163  Active  25-03-2015    39.98  0.00 
172 1798 Lokesh Kumar 2014-Aksh-BHARATPUR ATAL SEWA KENDRA KHESTI    9024062105  Active  06-04-2015    .22  0.00 
173 1799 Harnam Singh 2014-Aksh-BHARATPUR ATAL SEWA KENDRA SADHPURI TEH. NAGAR    8502807926  Active  06-04-2015    1148.45  0.00 
174 1819 Harmeet Singh 2014-Aksh-BHARATPUR ATAL SEWA KENDRA BASBURJA TEH. NAGAR Bharatpur    8426020062  916  Active  11-04-2015    4685.62  0.00 
175 1822 Yashwant Singh 2014-Aksh-BHARATPUR VILLAGE POST PATHENA BABEKHAR TEH.BHUSAWAR BHARATPUR    9413027496  15  Active  11-04-2015    3.11  0.00 
176 1823 Gaurav Agrawal 2014-Aksh-BHARATPUR 29 STC HOUSING BOARD COLONEY BHARATPUR    9680399300  Active  11-04-2015    42.72  0.00 
177 1824 Veerendra Singh 2014-Aksh-BHARATPUR POST GOPALGARH THESIL PAHARI Bharatpur    9461623407  Active  11-04-2015    .16  0.00 
178 1826 Tufail Khan 2014-Aksh-BHARATPUR ATAL SEWAKENDRA GHOSINGA TEH. PAHARI    8058533192  Active  11-04-2015    3.79  0.00 
179 1828 Khem Singh 2014-Aksh-BHARATPUR ATAL SEWA KENDRA ODELGADDI TEH,RUPWAS    9672333434  Active  11-04-2015    374.46  0.00 
180 1829 Chandra Sekhar Sharma 2014-Aksh-BHARATPUR ATAL SEWA KENDRA SHEESHWADA TEH. DEEG    9672327226  Active  11-04-2015    624.36  0.00 
181 1830 Yashpal Singh 2014-Aksh-BHARATPUR ATAL SEWA KENDRA SALEMPUR KALAN TEH.BHUSAWAR    7891508503  Active  11-04-2015    .55  0.00 
182 1878 Ranveer Singh 2014-Aksh-BHARATPUR ATAL SEWA KENDRA KHERLI GADASIYA TEH. BAYANA BHARATPUTR RAJASTHAN    9785380337  18  Active  15-04-2015    5090.1  0.00 
183 1879 Harish Chand 2014-Aksh-BHARATPUR SURAJ BAGH COLONY KAMAN BHARATPUR    9460963151  Active  15-04-2015    .44  0.00 
184 1886 Pavan Kumar 2014-Aksh-BHARATPUR Tehsil Office Pahari    9785750032  Active  16-04-2015    0.00 
185 1924 Pavan Kumar 2014-Aksh-BHARATPUR ATAL SEWA KENDRA MAHMADPURA THE. BAYANA Bharatpur Rajasthan    9785300376  80  Active  17-04-2015    17.35  0.00 
186 1936 Nadeem 2014-Aksh-BHARATPUR ANAJ MANDI KE SAMNE  KOSI ROAD KAMAN Bharatpur   9001409058  Active  17-04-2015    .3  0.00 
187 1938 Santosh Kumar 2014-Aksh-BHARATPUR NERA DURGA TEMPLE RANJEET  NAGAR BHARATPUR   9887039878  1020  Active  17-04-2015    137  0.00 
188 1940 Mukesh Saini 2014-Aksh-BHARATPUR NAGAR ROAD, DEEG Bharatpur Rajasthan    9636585941  Active  17-04-2015    8.58  0.00 
189 1944 Raghvendra Sharma 2014-Aksh-BHARATPUR RADHA KRISHNA MANDIR WALI GALI B- NARAYAN GATE BHARATPUR     9828856009  Active  18-04-2015    2.46  0.00 
190 1945 Mukesh Chand 2014-Aksh-BHARATPUR IN FRONT OF NAGAR PALIKA NADBAI BHARATPUR RAJASTHAN     9887963208  Active  18-04-2015    50.7  0.00 
191 1946 Lakhan Singh 2014-Aksh-BHARATPUR PADAM VIHAR COLONY SEWAR ROAD BHARATPUR    9468681247  Active  18-04-2015    .62  0.00 
192 1949 Raju Singh 2014-Aksh-BHARATPUR 52, JATAV MOHALLA SADPURI THE. NAGAR Bharatpur Rajasthan    8094133729  Active  18-04-2015    9.05  0.00 
193 1950 Mukesh Chand Sharma 2014-Aksh-BHARATPUR RADHA SWAMI SCHOOL KE SAMNE KHERLI  ROAD NAGAR BHARATPUR   9460646954  Active  18-04-2015    -.58  0.00 
194 1964 Vinod Kumar Sharma 2014-Aksh-BHARATPUR MAIN MARKET SEWAR BHARATPUR    9649644179  181  Active  22-04-2015    97.06  0.00 
195 2014 Mousam 2014-Aksh-BHARATPUR ATAL SEVA KENDRA DHAULET TEH PAHARI    9887812410  Active  29-04-2015    .27  0.00 
196 2015 Suveer Chhonkar 2014-Aksh-BHARATPUR NEW CIVIL LINES WARD N0. 39 BHARATPUR    8560087478  Active  29-04-2015    .84  0.00 
197 2017 Jal Singh 2014-Aksh-BHARATPUR KHERLI GADASIYA TEH. BAYANA Bharatpur    9784913377  Active  29-04-2015    .62  0.00 
198 2031 Yashpal Singh 2014-Aksh-BHARATPUR ATAL SEWA KENDRA ,BACHHRAIN TEH. WEIR BHARATPUR.    9680771458  Active  30-04-2015    530.75  0.00 
199 2035 Vikram Singh 2014-Aksh-BHARATPUR ATAL SEWA KENDRA BARAI THE.DEEG, Bharatpur    9680467064  Active  30-04-2015    .67  0.00 
200 2038 Ijhar 2014-Aksh-BHARATPUR ATAL SEWA KENDRA DHOULET THE. PAHARI Bharatpur    8058657171  Active  30-04-2015    4.76  0.00 
201 2040 Ved Prakash 2014-Aksh-BHARATPUR ATAL SEWA KENDRA TERHIYA THE.RUPWAS BHARATPUR    05648277021  Active  30-04-2015    .21  0.00 
202 2041 Ramveer Singh 2014-Aksh-BHARATPUR ATAL SEWA KENDRA BARSO BHARATPUR    9887493642  Active  30-04-2015    .71  0.00 
203 2043 Pushpendra Kumar 2014-Aksh-BHARATPUR PUSHPENDRA EMITRA CENTRE GOPALGARH BHARATPUR RAJASTHAN    9413303160  Active  30-04-2015    .4  0.00 
204 2046 Rinku Kumar Rawat 2014-Aksh-BHARATPUR MOROLI DAHAR TEH. RUPWAS, Bharatpur    9927130712  Active  30-04-2015    .2  0.00 
205 2048 Ashok Kumar 2014-Aksh-BHARATPUR 135, RUNDHIYA NAGAR NEAR GIRRAJ KENAL BHARATPUR Rajasthan    9828370901  Active  01-05-2015    1.46  0.00 
206 2059 Hemant Kumar Sharma 2014-Aksh-BHARATPUR PURABAI KHERA TEH. BAYANA DIST BHARATPUR    9772739816  588  Active  04-05-2015    5638.61  0.00 
207 2070 Rajpal Yadav 2014-Aksh-BHARATPUR KALYAN MOHALLA KAMAN BHARATPUR RAJASTHAN    8058657957  Active  05-05-2015    .4  0.00 
208 2071 Khem Singh 2014-Aksh-BHARATPUR ATAL SEWA KENDRA SALABAD THE. BAYANA    9887368362  Active  05-05-2015    -32.16  0.00 
209 2072 Subham Khandelwal 2014-Aksh-BHARATPUR PAWAN KUNJ COLONY WARD N024 KAMAN Bharatpur Rajasthan    8387872670  Active  05-05-2015    .82  0.00 
210 2073 Pankaj Kumar 2014-Aksh-BHARATPUR GOPALGARH PAHARI BHARATPUR RAJASTHAN    9828551252  Active  05-05-2015    11.2  0.00 
211 2096 Arun Singh 2014-Aksh-BHARATPUR ATAL SEWA KENRDAR NEWARA THE. WEIR BHARATPUR RAJASTHAN    9001686769  Active  06-05-2015    228.1  0.00 
212 2098 Shree Ram 2014-Aksh-BHARATPUR ATAL SEWA KENDRA SABORA THE. KUMHER Bharatpur Rajasthan    9929169030  313  Active  06-05-2015    .59  0.00 
213 2099 Radharaman Sharma 2014-Aksh-BHARATPUR ATAL SEWA KENDRA PARAUA THE.RUPWAS Bharatpur Rajasthan    9887196436  -55  Active  06-05-2015    .75  0.00 
214 2100 Gopal Prasad 2014-Aksh-BHARATPUR ATAL SEWA KENDRA GOVINDPURA WEIR BHARATPUR RAJASTHAN    8696367636  149  Active  06-05-2015    6.29  0.00 
215 2132 Bhupendra Singh 2014-Aksh-BHARATPUR DEEP COMPUTER CENTRE PAHUA THE. KUMHER, Bharatpur    9828815751  Active  14-05-2015    -17.19  0.00 
216 2133 Pankaj Agarwal 2014-Aksh-BHARATPUR PURANI ANAJ MANDI WEIR Bharatpur Rajasthan    9461966250  Active  14-05-2015    .36  0.00 
217 2135 Anil Kumar 2014-Aksh-BHARATPUR ATAL SEWA KENDRA BIDIYARI TEH. BAYANA BHARATPUR RAJASTHAN    9414226716  Active  14-05-2015    .38  0.00 
218 2144 Roopkishor Yadav 2014-Aksh-BHARATPUR Atal Seva Kendra Berro Nagar Bharatpur Rajasthan    9799180017  Active  20-05-2015    .06  0.00 
219 2145 Surjeet Singh 2014-Aksh-BHARATPUR ATAL SEWA KENDRA SAHSAN THE. PAHARI BHARATPUR RAJASTHAN    8441058009  445  Active  20-05-2015    .94  0.00 
220 2146 Fareed Khan 2014-Aksh-BHARATPUR 115 JATAV MOHALLA MUDIYA THE. NAGAR BHARATPUR RAJASTHAN    9587727320  Active  20-05-2015    .68  0.00 
221 2147 Akhlesh Kumar Sharma 2014-Aksh-BHARATPUR ATAL SEWA KENDRA JAGGIVANPUR THE. WEIR BHARATPUR RAJASTHAN    9950251165  Active  20-05-2015    .08  0.00 
222 2164 Arun Kumar 2014-Aksh-BHARATPUR INFRONT OF PNB BANK DEEG ROAD BHARATPUR Rajasthan    9887887202  Active  26-05-2015    .58  0.00 
223 2168 Rajkumar 2014-Aksh-BHARATPUR Gram Panchayat LAKHAN THESILKUMHER, Bharatpur    9983684578  Active  26-05-2015    .98  0.00 
224 2174 Amit Chawla 2014-Aksh-BHARATPUR INFRONT OF SDM COURT KAMAN BHARATPUR RAJASTHAN    9610376376  Active  27-05-2015    549.88  0.00 
225 2176 Bhupendra Kumar Dixit 2014-Aksh-BHARATPUR GANDHI NAGAR ROAD SEWAR ROAD BHARATPUR RAJASTHAN    9887503135  260  Active  27-05-2015    199.15  0.00 
226 2258 Balram Yadav 2014-Aksh-BHARATPUR CHURI BAZAR TEH. NAGAR BHARATPUR    9352777935  19  Active  10-06-2015    3.45  0.00 
227 2261 Iliyas Khan 2014-Aksh-BHARATPUR ATAL SEWA KENDRA TODA THESIL DEEG    9772391011  68  Active  10-06-2015    98.1  0.00 
228 2290 Samsuddin 2014-Aksh-BHARATPUR Viil- Jhantli Teh. Nagar Dist. Bhartpur Rajasthan    7665913436  Active  18-06-2015    .07  0.00 
229 2302 Dharm Singh 2014-Aksh-BHARATPUR SUNDRAWALI THESIL NAGAR BHARATPUR RAJASTHAN    9887586072  Active  20-06-2015    .7  0.00 
230 2304 Chet Ram 2014-Aksh-BHARATPUR NEAR BUS STAND KHOH TEHSIL DEEG BHARATPUR    9928272289  121  Active  20-06-2015    770.89  0.00 
231 2306 Ramavatar 2014-Aksh-BHARATPUR KHORKI ROAD TEHSIL NAGAR BHARATPUR RAJASTHAN    9571765235  Active  20-06-2015    -148.53  0.00 
232 2307 Santosh Kumar 2014-Aksh-BHARATPUR MAIN MARKET SEWAR BHARATPUR RAJASTHAN    9887002180  Active  20-06-2015    11.94  0.00 
233 2308 Arun Kumar Jain 2014-Aksh-BHARATPUR BUDH KI HAAT BHARATPUR    9782505757  Active  20-06-2015    23.61  0.00 
234 2309 Meghraj 2014-Aksh-BHARATPUR NEAR SDM OFFICE BHUS AWAR BHARATPUR RAJASTHAN   8094670022  Active  20-06-2015    50.46  0.00 
235 2314 Sanju Sharma 2014-Aksh-BHARATPUR PAI BAGH, BHARATPUR    9461867091  Active  27-06-2015    .38  0.00 
236 2326 Ravi Kumar 2014-Aksh-BHARATPUR Kaman Bharatpur Rajasthan    7891212512  Active  03-07-2015    16.46  0.00 
237 2327 Babli Arya 2014-Aksh-BHARATPUR SAINI MOHALLA KUMHER GATE BHARATPUR RAJASTHAN    8003230758  Active  03-07-2015    .45  0.00 
238 2363 Lokesh Kumar Sharma 2014-Aksh-BHARATPUR NEAR SBI BANK , HINDOUN ROAD   BHUSAWAR , BHARATPUR RAJASTHAN undefined  8058681832  23  Active  24-07-2015    42.3  0.00 
239 2370 Akeel Ahmed 2014-Aksh-BHARATPUR Tehsil CampusNagar,Bharatpur    9982090666  Active  24-07-2015    -51.8  0.00 
240 2374 Vishesh Kumar Sharma 2014-Aksh-BHARATPUR NEAR BHUMIYA BURJ GOPINAAT MAUHLLA KAMAN BHARATPUR RAJASTHAN    7891868653  82  Active  24-07-2015    .73  0.00 
241 2375 Narendra 2014-Aksh-BHARATPUR MAIN ROAD UCCHAIN THESIL RUPBAS BHARATPUR RAJASTHAN    8952963617  Active  24-07-2015    .2  0.00 
242 2393 Rakesh Kumar Garg 2014-Aksh-BHARATPUR D-26 SHOPING CENTER JAWAHAR NAGAR  BHARATPUR RAJASTHAN  9352777798  Active  04-08-2015    3.27  0.00 
243 2396 Yuvraj 2014-Aksh-BHARATPUR Village & Psot Ajau The. Kumher Bharatpur Rajasthan    8058220778  Active  05-08-2015    16.75  0.00 
244 2397 Mukand Bihari 2014-Aksh-BHARATPUR CITY SCHOOL KE PASS BAPU BAZAR NAGAR BHARATPUR RAJASTHAN    9024564343  Active  05-08-2015    -148.33  0.00 
245 2399 Ramesh Chand Jha 2014-Aksh-BHARATPUR NEEM KA NEECHE GUD KI MANDI KUMHER BHARATPUR RAJASTHAN    9782514178  29  Active  05-08-2015    .67  0.00 
246 2430 Pawan Kumar 2014-Aksh-BHARATPUR ATAL SEWA KENDRA KURKA THE. RUPBAS BHARATPUR    9785135761  Active  10-08-2015    34.77  0.00 
247 2432 Ram Ratan Kaushik 2014-Aksh-BHARATPUR EMPLOYEMENT OFFICE BHARATPUR RAJASTHAN    9672900243  75  Active  10-08-2015    1897.85  0.00 
248 2496 Subhash Singh 2014-Aksh-BHARATPUR ATAL SEWA CENTRE MADARPUR BHARATPUR RAJASTHAN    9001004584  11  Active  01-09-2015    .39  0.00 
249 2500 Praveen Kumar Jangid 2014-Aksh-BHARATPUR MAINAPURA THESIL BHUSAWAR WEIR BHARATPUR RAJASTHAN    8058947094  100  Active  03-09-2015    139.28  0.00 
250 2501 Bhagawan Swaroop Pandey 2014-Aksh-BHARATPUR ATAL SEWA KENDRA WEIR BHARATPUR RAJASTHAN    8829834999  234  Active  03-09-2015    -16.8  0.00 
251 2516 Vijay Singh 2014-Aksh-BHARATPUR VIJAY E-MITRA NEAR MAIN GATE THANA NADBAI BHARATPUR    9782319241  12  Active  11-09-2015    -51.83  0.00 
252 2519 Rajesh Singh 2014-Aksh-BHARATPUR RAJESH EMITRA CENTRE BHUSAWAR BHARATPUR RAJASTHAN    9667230074  10  Active  11-09-2015    22.89  0.00 
253 2525 Aksh Optifibre Limited 2014-Aksh-BHARATPUR A.EN. OFFICE (O&M), BAYANA BHARATPUR    9414485885  10  Active  16-09-2015    15.04  0.00 
254 2526 Jagveer Singh 2014-Aksh-BHARATPUR PARUL EMITRACENTRE KATARA NADBAI BHARATPUR RAJASTHAN    8384961669  Active  17-09-2015    .1  0.00 
255 2528 Bhuvnesh Katara 2014-Aksh-BHARATPUR Dahina Ganv, GP Dahina Ganv, PS Roopwas    8432325507  26  Active  18-09-2015    .87  0.00 
256 2531 Vipin Kumar Jain 2014-Aksh-BHARATPUR SARAFA BAZAR JUREHRA TEH.- KAMA DIST.- BHARATPUR RAJASTHAN    9414716155  Active  29-09-2015    .64  0.00 
257 2552 Krishna Kant 2014-Aksh-BHARATPUR KRISHI TAYARS KE PASS DEEG ROAD BHARATPUR    9024281316  Active  01-10-2015    .41  0.00 
258 2582 Yogesh Kumar 2014-Aksh-BHARATPUR SABLANA TEHSIL KAMAN BHARATPUR RAJASTHAN    9057464748  Active  14-10-2015    107.92  0.00 
259 2583 Sushila Agrawal 2014-Aksh-BHARATPUR COURT CAMPAS BHARATPUR RAJASTHAN    9461033105  Active  14-10-2015    .38  0.00 
260 2588 Dal Chand 2014-Aksh-BHARATPUR NEAR PANCHYAT KE PASS SIKRI BHARATPUR RAJASTHAN    9672135624  Active  16-10-2015    .52  0.00 
261 2589 Bhoori Singh 2014-Aksh-BHARATPUR MUDHERA ROOPWAS BHARATPUR    9610041014  Active  17-10-2015    -.38  0.00 
262 2601 Kavishwar Kant 2014-Aksh-BHARATPUR DEVRAJ EMITRA COMPUTER CENTRE MATHURA JAIPUR BAIPASS BHARATPUR    8386909066  Active  28-10-2015    .26  0.00 
263 2602 Mohan Swroop Sharma 2014-Aksh-BHARATPUR INFRONT OF GURUKULSCHOOL NADBAI BHARATPUR    8559856204  Active  28-10-2015    3.47  0.00 
264 2603 Deepak Garg 2014-Aksh-BHARATPUR MAIN MARKET ROOPWAS BHARATPUR RAJASTHAN    9549786858  Active  28-10-2015    2198.37  0.00 
265 2605 Hemant Kumar Jain 2014-Aksh-BHARATPUR NEAR HANUMAN MANDIR GOPALGARH BHARATPUR    9667004985  Active  28-10-2015    -68.73  0.00 
266 2608 Atar Singh 2014-Aksh-BHARATPUR ATAL SEVA KENDRA JAISHRI TEH. NAGAR BHARATPUR    9983740637  Active  30-10-2015    .17  0.00 
267 2613 Avinesh Garg 2014-Aksh-BHARATPUR B- 93 SUBHASH NAGAR BHARATPUR    9694545963  1265  Active  02-11-2015    89.78  0.00 
268 2638 Lokesh Baswada 2014-Aksh-BHARATPUR MSJ COLLAGE KE SAMNE BHARATPUR    9636841153  24  Active  07-11-2015    .16  0.00 
269 2720 Artee Kumari 2014-Aksh-BHARATPUR GAYATRI PHOTO STATE COLLECTRECT ROAD BHARATPUR    7742507865  69  Active  09-12-2015    .01  0.00 
270 2722 Praveen Kumar 2014-Aksh-BHARATPUR PRAVEEN E-MITRA NEW PUSHPVATIKA COLONY BHARATPUR    9414980248  Active  09-12-2015    13.07  0.00 
271 2724 Neeraj Saini 2014-Aksh-BHARATPUR KRISHNA E-MITRA SURAJPOLE GATE BHARATPUR    7733869060  Active  09-12-2015    .08  0.00 
272 2749 Kamal Dass 2014-Aksh-BHARATPUR INDRA NAGAR NALE KE PASS BHARATPUR    9785180936  Active  19-12-2015    24.97  0.00 
273 2753 Peetam Singh Saini 2014-Aksh-BHARATPUR BHARTI EMITRA CENTRE NEAR TEHSIL BHUSAWAR BHARATPUR    8502805851  Active  22-12-2015    -60.13  0.00 
274 2789 Dilawer Khan 2014-Aksh-BHARATPUR KHERLI GUMANI TEH. KAMAN DIST.- BHARATPUR RAJASTHAN    8502079191  Active  05-01-2016    0.00 
275 2810 Hakim Singh 2014-Aksh-BHARATPUR Atal Sewa Kendra Lahachorakalan Bayana Bharatpur    9057616307  Active  06-01-2016    3.46  0.00 
276 2811 Ravi Katheriya 2014-Aksh-BHARATPUR Saksham E-Mitra Centre, Jaghina Gate  Gopal Garh, Bharatpur undefined  7062452805  17  Active  06-01-2016    155.2  0.00 
277 2812 Vishnu Sharma 2014-Aksh-BHARATPUR LAVANIYA E-MITRA CENTRE, SEWAR FORT KE SAMENE  SEWARVROAD, BHARATPUR undefined  8947921593  Active  06-01-2016    8.37  0.00 
278 2814 Jeetendra Singh 2014-Aksh-BHARATPUR OM - SHAI E-MITRA CENTRE, V- RARAH  TEH. - KUMHER, BHARATPUR undefined  9680990299  Active  06-01-2016    35.07  0.00 
279 2815 Prasoon Singhal 2014-Aksh-BHARATPUR BAUJI TELECOME & E-MITRA CENTRE SURAJPOLE CHAURAHA GOPAL GARH , BHARATPUR    8559826434  Active  06-01-2016    .99  0.00 
280 2885 Neeraj Kumar 2014-Aksh-BHARATPUR BAROLICHHAR TEH. NADBAI (PAY POINT)Bharatpur     9660985921  Active  30-01-2016    30.64  0.00 
281 2922 Soop Ram Jatav 2014-Aksh-BHARATPUR Paypoint PASOPA Deegbharatpur     9001596884  Active  04-02-2016    1.9  0.00 
282 2923 Naresh Kumar 2014-Aksh-BHARATPUR Paypoint BELARA KALA TEHSIL KUMHER Bharatpur     9413995932  Active  04-02-2016    17.69  0.00 
283 2924 Ram Singh 2014-Aksh-BHARATPUR CHULERA TEHSIL DEEG Bharatpur     8503085433  Active  04-02-2016    .95  0.00 
284 2927 Narendra Singh 2014-Aksh-BHARATPUR Pay Point BEDHAM TEHSIL DEEG Bharatpur     8561067043  Active  04-02-2016    0.00 
285 2932 Taiyyab Khan 2014-Aksh-BHARATPUR NEAR MASJID, GARHI MEWAT  BEDHAM, BHARATUR undefined  9610299014  Active  04-02-2016    1.85  0.00 
286 2934 Pramod Kumar 2014-Aksh-BHARATPUR VILLAGE - GIRSE, TEHSIL - DEEG  BHARATPUR   9950101060  Active  04-02-2016    .84  0.00 
287 2949 Ravi Lawaniya 2014-Aksh-BHARATPUR GOVERDHAN GATE, BHARATPUR    9667420119  Active  05-02-2016    173.93  0.00 
288 2959 Vipin Bansal 2014-Aksh-BHARATPUR Paypoint KHERIA PUROHIT SONGAON DEEG BHARATPUR    9024484998  Active  09-02-2016    0.00 
289 2960 Jeetendra Kumar 2014-Aksh-BHARATPUR Pay Point Shripur,Deeg Bharatpur    8058334322  Active  09-02-2016    142.03  0.00 
290 2961 Dhanesh Kumar 2014-Aksh-BHARATPUR EMITRA PAYPOINT SINSINI, BHARATPUR    9983301011  Active  09-02-2016    0.00 
291 2962 Surendra Singh 2014-Aksh-BHARATPUR EMITRA PAYPOINT KHEMRA BHARATPUR    9828434242  Active  09-02-2016    0.00 
292 2963 Baboo Lal 2014-Aksh-BHARATPUR EMITRA PAYPOINT UMRA, DEEG  BHARATPUR    9460740002  Active  09-02-2016    2.95  0.00 
293 2964 Ajay Singh 2014-Aksh-BHARATPUR EMITRA PAYPOINT SUKHAWALI, BHARATPUR    9414718383  Active  09-02-2016    0.00 
294 2965 Rinku Kumar 2014-Aksh-BHARATPUR EMITRA PAYPOINT VILLAGE - TUHIYA, TYONGA  BHARATPUR   8058561420  Active  09-02-2016    0.00 
295 2966 Asjad Khan 2014-Aksh-BHARATPUR Emitra Paypoint BHUAPUR GARHI TEHSIL NAGAR Bharatpur     9529709046  Active  09-02-2016    0.00 
296 2967 Manoj Kumar Saini 2014-Aksh-BHARATPUR EMITRA PAYPOINT SAINI MOHALLA, BEWAR  HALENA, BHARATPUR undefined  9660253382  Active  09-02-2016    0.00 
297 2968 Rajesh Kumar Gupta 2014-Aksh-BHARATPUR EMITRA PAYPOINT VILLAGE - AJROUNDA, TEHSIL - WEIR  BHARATPUR    8290136831  Active  09-02-2016    .95  0.00 
298 2969 Sushil Kumar 2014-Aksh-BHARATPUR EMITRA PAYPOINT BANI KUMHAR, BHARATPUR     9587999024  Active  09-02-2016    0.00 
299 2970 Pramod Kumar Sharma 2014-Aksh-BHARATPUR EMITRA Paypoint BAI,WEIR  BHARATPUR   9414526914  Active  09-02-2016    4.96  0.00 
300 2971 Brijesh Kumar 2014-Aksh-BHARATPUR EMITRA PAYPOINT KUTAKPUR, CHIRAWALMALI  NAGAR, BHARATPUR  undefined  8058976432  Active  09-02-2016    0.00 
301 2972 Gopal Prasad 2014-Aksh-BHARATPUR EMITRA PAYPOINT GOVINDPURA GP MUHARI THE. WEIR Bharatpur     8696367635  Active  09-02-2016    8.24  0.00 
302 2973 Jaswant Singh 2014-Aksh-BHARATPUR EMITRA PAYPOINT KASODA GP MADAHONI THE. BHARATPUR    9001649139  Active  09-02-2016    .97  0.00 
303 2974 Kuldep Singh 2014-Aksh-BHARATPUR EMITRA PAYPOINT GANGROLI POST HISHAMDA TEH WEIR Bharatpur     9667234915  Active  09-02-2016    21.98  0.00 
304 2975 Bharat Singh 2014-Aksh-BHARATPUR EMITRA PAYPOINT NAHREPUR GP SIRAS TEHSIL WEIR BHARATPUR    9660347922  Active  09-02-2016    89.06  0.00 
305 2976 Manoj Kumar 2014-Aksh-BHARATPUR EMITRA PAYOINT SHYAMDHAK, BAROLI CHAUTH  DEEG, BHARATPUR undefined  9413309325  Active  09-02-2016    0.00 
306 2977 Hariom 2014-Aksh-BHARATPUR EMITRA PAYPOINT GUHANA, DEEG  BHARATPUR   9414449940  Active  09-02-2016    0.00 
307 2978 Sumit Singh 2014-Aksh-BHARATPUR EMITRA PAYPOINT Bahnera Sewar Bharatpur     7297895400  Active  09-02-2016    61.78  0.00 
308 2979 Vipin Kumar 2014-Aksh-BHARATPUR EMITRA PAYPOINT SEHU GP PADMADRA TEH. DEEG Bharatpur     9694805536  Active  09-02-2016    100.95  0.00 
309 2980 Nagendra Singh 2014-Aksh-BHARATPUR EMITRA PAYPOINT NARENA CHOTH GP PASTA TEH. DEEG Bharatpur     9785350540  Active  09-02-2016    .95  0.00 
310 2981 Kehar Singh 2014-Aksh-BHARATPUR EMITRA PAYPOINT SHAYPUR GP BARAI TEH. DEEG Bharatpur     9887327743  Active  09-02-2016    .84  0.00 
311 2986 Indrajeet Boudh 2014-Aksh-BHARATPUR EMITRA PAYPOINT JHEETREDI  GP SEMLA KALAN TEH. NAGAR Bharatpur    7891847732  Active  09-02-2016    0.00 
312 2987 Nem Singh 2014-Aksh-BHARATPUR EMITRA PAYPOINT  PIRAKA GP SAIMLAKALAN TEH. NAGAR Bharatpur    9024459580  Active  09-02-2016    1.79  0.00 
313 2988 Prem Prakash 2014-Aksh-BHARATPUR POOLICE THANE KE GATE KE PASS TEHSIL NADBAI Bharatpur    8947841512  244  Active  10-02-2016    48.03  0.00 
314 2989 Khem Chand Sharma 2014-Aksh-BHARATPUR ATAL SEVA KENDRA, SOGAR  KUMHER, BHARATPUR undefined  9782149599  Active  10-02-2016    1.12  0.00 
315 2990 Sonu Bansal 2014-Aksh-BHARATPUR VILLAGE And POST - SABORA, TEHSIL - KUMHER  DISTRICT- BHARATPUR   9785537341  80  Active  10-02-2016    60.63  0.00 
316 2992 Vinod Kumar Agrawal 2014-Aksh-BHARATPUR UNCLE G EMITRA A-93RANJEET NAGAR BHARATPUR    9413113575  Active  10-02-2016    198.08  0.00 
317 2993 Kshitij Singh 2014-Aksh-BHARATPUR EMITRA Paypoint MADARPUR, CHIKSANA  SEWAR, BHARATPUR undefined  8946830750  Active  11-02-2016    0.00 
318 2994 Sahil Khan 2014-Aksh-BHARATPUR EMITRA PAYPOINT BHUTA GP MUDIYA TEH. NAGAR    9785709285  Active  11-02-2016    0.00 
319 2995 Rasid Khan 2014-Aksh-BHARATPUR EMITRA PAYPOINT BALKHEDHA GP KHKHABALI TEH. NAGAR Bharatpur     9828254582  Active  11-02-2016    34.6  0.00 
320 2996 Soran 2014-Aksh-BHARATPUR EMITRA PAYPOINT NARANA GP BANDHA CHOTH TEH. DEEG Bharatpur     9214065753  Active  11-02-2016    0.00 
321 2997 Anil Goyam 2014-Aksh-BHARATPUR EMITRA PAYPOINT ROJKI GP PENDKA TEH. NAGAR Bharatpur     9694896625  Active  11-02-2016    0.00 
322 2998 Ajab Singh Beekarwar 2014-Aksh-BHARATPUR EMITRA PAYPOINT MAI KA NAGLA GP MAI TEH. NADBAI Bharatpur     9929499299  Active  11-02-2016    14.79  0.00 
323 2999 Ankur Thanua 2014-Aksh-BHARATPUR EMITRA PAYPOINT NAUHGAYA , HATHENI  SEWAR, BHARATPUR undefined  9414208208  Active  11-02-2016    0.00 
324 3017 Satnam Singh Sandhu 2014-Aksh-BHARATPUR EMITRA Paypoint BARRPURA , AGHAPUR  CHIKSANA, SEWAR  BHARATPUR  9694565465  Active  13-02-2016    0.00 
325 3022 Ashwani Singh 2014-Aksh-BHARATPUR EMITRA PAY POINT VIJAY NAGAR, RUNDH HELAK  KUMHER, BHARATPUR undefined  9829159955  Active  15-02-2016    0.00 
326 3023 Siddharth Agre 2014-Aksh-BHARATPUR Emitra Paypoint Vijaynagar Khumer Bharatpur Rajasthan     9694837688  Active  15-02-2016    0.00 
327 3024 Ram Singh 2014-Aksh-BHARATPUR EMITRA PAY POINT GHATOLI POST KHANSURJAPUR TEH. RUPBAS BHARATPUR    9929404345  Active  15-02-2016    .9  0.00 
328 3025 Chandra Prakash Yadav 2014-Aksh-BHARATPUR EMITRA PAY POINT MAHCHAULI PIPLA BLOCK SEWAR BHARATPUR    8769060087  Active  15-02-2016    .29  0.00 
329 3029 Neeru Singh 2014-Aksh-BHARATPUR EMITRA PAY POINT BHAHRABALI GP BHESHA TEH. RUPBAS BHARATPUR    9166676846  Active  16-02-2016    .95  0.00 
330 3030 Ravi Kumar 2014-Aksh-BHARATPUR EMITRA PAY POINT KARMUKABAAS GP LEHRSAR TEH. KAMAN BHARATPUR    7891212511  Active  16-02-2016    0.00 
331 3032 Manoj Kumar 2014-Aksh-BHARATPUR EMITRA PAY POINT LODHAHEDI GP GHANKAR TEH. NAGAR BHARATPUR    8058260315  Active  16-02-2016    0.00 
332 3034 Narendra Kumar 2014-Aksh-BHARATPUR EMITRA PAY POINT JATOLI GHANA GP BACHAMDI SEWAR BHARATPUR    9461841710  Active  16-02-2016    0.00 
333 3035 Chhote Lal 2014-Aksh-BHARATPUR EMITRA PAY POINT SUPAWAS GP RETHOTI TEH. KUMHER BHARATPUR    9636282236  Active  16-02-2016    0.00 
334 3036 Ramveer Gurjar 2014-Aksh-BHARATPUR EMITRA PAY POINT RANOTA GP MORAKA TEH. NAGAR BHARATPUR    9785438001  Active  16-02-2016    0.00 
335 3037 Ramchand 2014-Aksh-BHARATPUR EMITRA PAY POINT RAVIDASPURA GP GANGABAK TEH NAGAR BHARATPUR     9929797614  Active  16-02-2016    0.00 
336 3038 Ramavtar Gurjar 2014-Aksh-BHARATPUR EMITRA PAY POINT GHATA GP PALLA TEH. KAMAN BHARATPUR    9468682522  Active  16-02-2016    .95  0.00 
337 3039 Mohammad Irashad 2014-Aksh-BHARATPUR EMITRA PAY POINT ANGRAWALI GP BILONG TEH. KAMAN BHARATPUR    9828282183  Active  16-02-2016    4.02  0.00 
338 3040 Lakhan Singh 2014-Aksh-BHARATPUR EMITRA PAY POINT JURHARI GP PAAI TEH. KAMAN BHARATPUR    9887539321  Active  16-02-2016    0.00 
339 3041 Narayan Singh 2014-Aksh-BHARATPUR Emitra Pay Point Badhipur Gp Satwas Teh. Kaman Bharatpur    7792951767  Active  16-02-2016    34.67  0.00 
340 3042 Rajesh Kumar 2014-Aksh-BHARATPUR EMITRA PAY POINT BAJHRA GP SUNHERA TEH. KAMAN BHARATPUR    9927238301  Active  16-02-2016    87.46  0.00 
341 3058 Bachchu Singh 2014-Aksh-BHARATPUR NEAR GANDHI MANDIR, PANCHYAT SAMITI ROAD  BAYANA, BHARATPUR undefined  9414446200  Active  17-02-2016    5.76  0.00 
342 3063 Jagdish Kumar 2014-Aksh-BHARATPUR EMITRA PAY POINT BADHRIPUR TEHSIL DEEG BHARATPUR    9694546972  Active  19-02-2016    0.00 
343 3064 Akash Agre 2014-Aksh-BHARATPUR EMITRA PAY POINT SATYAPURA, RUNDH HELAK  KUMHER , BHARATPUR undefined  9782123003  Active  19-02-2016    0.00 
344 3071 Ashok Kumar 2014-Aksh-BHARATPUR EMITRA PAY POINT BOOLKHERA KA BASS GP BOOLKHERA TEH. KAMAN     9950292638  Active  23-02-2016    0.00 
345 3110 Hakim Singh 2014-Aksh-BHARATPUR EMITRA PAY POINT AJNOULI GP LAHCHORAKALAN TEH. BAYANA BHARATPUR    7615999265  Active  01-03-2016    9.4  0.00 
346 3113 Rahul Kumar 2014-Aksh-BHARATPUR EMITRA PAY POINT KARBAN GP SUHARI TEH. BHUSAWAR BHARATPUR    9694772267  Active  01-03-2016    0.00 
347 3114 Sarpu Khan 2014-Aksh-BHARATPUR EMITRA PAY POINT RAYAPUR SUKETI GP PALKA TEH NAGAR BHARATPUR    8696530760  Active  01-03-2016    0.00 
348 3115 Govind Singh 2014-Aksh-BHARATPUR EMITRA PAY POINT MADANPUR GP DHADREN TEH. BAYANA BHARATPUR    8003062401  Active  01-03-2016    0.00 
349 3117 Rijwan Khan 2014-Aksh-BHARATPUR EMITRA PAY POINT RASULPUR GP KAKRALA TEH. NAGAR BHARATPUR    9982157989  Active  01-03-2016    0.00 
350 3120 Bahadur Singh 2014-Aksh-BHARATPUR Emitra Pay Point Vill Hingota Deeg Bharatpur    9828713071  Active  01-03-2016    1.28  0.00 
351 3152 Naval Singh 2014-Aksh-BHARATPUR VILLAGE - BAJHERA, POST - BACHHAMADI NOH  TEHSIL And DISTRICT - BHARATPUR   8233007554  Active  04-03-2016    -17.08  0.00 
352 3153 Ravi Kumar 2014-Aksh-BHARATPUR Goga Ji E-mitra Ward no 20 Near Kathputali  Temple Mohalla Gopal Garh Bharatpur (Rajasthan)   8058573640  Active  04-03-2016    150.76  0.00 
353 3154 Mukesh Chaturvedi 2014-Aksh-BHARATPUR KANJOLI LINE BHARATPUR    9024718864  304  Active  04-03-2016    -33.8  0.00 
354 3155 Lukman Hakeeem 2014-Aksh-BHARATPUR VILL.DAYANAWAS POST KHOHRI TEHSIL NAGAR Bharatpur     9828485035  Active  04-03-2016    45.26  0.00 
355 3156 Yadvendra Singh 2014-Aksh-BHARATPUR EMITRA PAY POINT MILKIPURA GP KHAGRI TEH. NADBAI BHARATPUR    7240724818  Active  04-03-2016    .58  0.00 
356 3157 Mukhiya Singh 2014-Aksh-BHARATPUR EMITRA PAY POINT BARABALI GP SONGAWON TEH. DEEG BHARATPUR    9660011940  Active  04-03-2016    522.5  0.00 
357 3158 Rajendra Singh 2014-Aksh-BHARATPUR EMITRA PAY POINT GULBANEE GP JAISHREE TEH. NAGAR BHARATPUR    9166177097  Active  04-03-2016    0.00 
358 3192 Mahesh Chand 2014-Aksh-BHARATPUR EMITRA PAYPOINT SANDUGAR GP PEPAL KEHDA TEH. PAHADI BHARATPUR    9983446060  Active  11-03-2016    .74  0.00 
359 3193 Prakash Chand 2014-Aksh-BHARATPUR EMITRA PAY POINT MEHRAMPUR GP RAISHEES TEH. NADBAI BHARATPUR    9694206895  Active  11-03-2016    0.00 
360 3194 Santoshi Lal 2014-Aksh-BHARATPUR Emitra Pay Point UNDRA GP GUSYAARI TEH BHARATPUR    8947064553  Active  11-03-2016    .95  0.00 
361 3195 Narayan Singh 2014-Aksh-BHARATPUR RAJPOOT EMITRA INDRA COLONEY TEHSIL KAMAN Bharatpur     9680813030  Active  12-03-2016    .58  0.00 
362 3197 Jeetendra Kumar 2014-Aksh-BHARATPUR EMITRA PAY POINT JOGIPURA GP BAROLIRAAN TEH. NADBAI BHARATPUR    9694471104  Active  14-03-2016    0.00 
363 3198 Sagar Kirad 2014-Aksh-BHARATPUR EMITRA PAY POINT UNEAR GP ECHARA TEH. NADBAI BHARATPUR    8058300769  Active  14-03-2016    0.00 
364 3199 Sonu Rawat 2014-Aksh-BHARATPUR EMITRA PAY POINT SIKRORA GP SIKRORI TEH. KUMHER BHARATPUR    9785171759  Active  14-03-2016    0.00 
365 3200 Prakash Chand 2014-Aksh-BHARATPUR EMITRA PAY POINT JAHRLA GP BALABGARD TEH. WEIR BHARATPUR    9784958550  Active  14-03-2016    5.9  0.00 
366 3201 Sanjay Singh 2014-Aksh-BHARATPUR EMITRA PAY POINT LULHAARO GP PAHERSAR THE. NADBAI BHARATPUR    9413301358  Active  14-03-2016    0.00 
367 3202 Anil Singh 2014-Aksh-BHARATPUR EMITRA PAY POINT UDPURI GP SAADPURI TEH. NAGAR BHARATPUR    8440082546  Active  14-03-2016    0.00 
368 3203 Rinku Singh 2014-Aksh-BHARATPUR EMITRA PAY POINT VILLAGE - DIDWARI, Gram Panchayat -  TALPHARA TEHSIL - NAGAR  BHARATPUR  7690045154  Active  14-03-2016    0.00 
369 3204 Hargovind Singh 2014-Aksh-BHARATPUR Emitra Pay Point Village - Bailara, Gram Panchayat - Kedi Devi Singh  Tehsil - Nadbai, Bharatpur undefined  9785338413  Active  14-03-2016    79.83  0.00 
370 3205 Hemu Rawat 2014-Aksh-BHARATPUR EMITRA PAY POINT SITARA GP PALA TEH. KUMHER BHARATPUR    9983022353  Active  15-03-2016    0.00 
371 3206 Vijendra Singh 2014-Aksh-BHARATPUR Vill.-Higota Deeg Bharatpur Rajasthan     9928225945  378  Active  15-03-2016    347.62  0.00 
372 3230 Rajesh Kumar 2014-Aksh-BHARATPUR RAJESH EMITRA CENTRE VIIL. &POST SUNHERA TH. KAMAN Bharatpur     9521192113  80  Active  22-03-2016    1969.97  0.00 
373 3233 Shiv Kumar 2014-Aksh-BHARATPUR Bapu Bazar Nagar Bharatpur    9414610952  Active  22-03-2016    .79  0.00 
374 3241 Vijay Pal Singh 2014-Aksh-BHARATPUR EMITRA PAY POINT KEALURI GP RONIJA TEH. NADBAI BHARATPUR    9982130413  Active  22-03-2016    0.00 
375 3242 Shaheed 2014-Aksh-BHARATPUR EMITRA PAY POINT MOOTHUKA GP DIMARI TEH. PHADHI BHARATPUR    9783873062  Active  22-03-2016    0.00 
376 3303 Vishnu Kumar 2014-Aksh-BHARATPUR SAMOGAR TEHSIL BAYANA BHARATPUR    8386879606  Active  11-04-2016    1253.48  0.00 
377 3348 Usaman 2014-Aksh-BHARATPUR Emitra Pay Point Targama, Gram Panchayat - Ghatri Weir  Bharatpur, Rajasthan undefined  9785563535  Active  14-04-2016    0.00 
378 3349 Haricharan Singh 2014-Aksh-BHARATPUR Emitra Pay Point Village Dhanipura, Gram Panchayat - Nayavas Nadbai  Bharatpur, Rajasthan undefined  7665178638  Active  14-04-2016    0.00 
379 3351 Narayan Singh 2014-Aksh-BHARATPUR EMITRA PAY POINT JHARKAI GP BHOUSINGATEH NADBAI BHARATPUR    8441957123  Active  14-04-2016    164.15  0.00 
380 3352 Faiji Khan 2014-Aksh-BHARATPUR EMITRA PAYPOINT CHANDUKADA NAGAR BHARATPUR     8107174788  Active  14-04-2016    0.00 
381 3355 Jagannath Sharma 2014-Aksh-BHARATPUR EMITRA PAY POINT KHOHARI DEEG, BHARATPUR  RAJASTHAN   9782074037  Active  14-04-2016    0.00 
382 3356 Chandra Prakash 2014-Aksh-BHARATPUR EMITRA PAY POINT CHAK CHEALUA GRAM  PANCHAYAT- FATEHPUR KALAN NAGAR, BHARATPUR   9667805875  Active  14-04-2016    0.00 
383 3357 Vinay Garg 2014-Aksh-BHARATPUR EMITRA PAY POINT ATARIPURA (PAY POINT) GRAM PANCHAYAT- BAROLI, WEIR  BHARATPUR,RAJASTHAN undefined  8441086608  Active  14-04-2016    0.00 
384 3418 Junaid Khan 2014-Aksh-BHARATPUR Emitra Pay Point Village - Khohra, Gram  Panchayat - Olanda Kaman. Bharatpur   9983855001  Active  27-04-2016    0.00 
385 3421 Pankaj Kumar 2014-Aksh-BHARATPUR JANGID E-MITRA CENTRE V-P LAITA MUDIA TEH. WEIR BHARATPUR    9549662601  Active  27-04-2016    .02  0.00 
386 3422 Girdhari Lal 2014-Aksh-BHARATPUR EMITRA PAY POINT BADHAKA GP ALAMSHA TEH. NAGAR BHARATPUR    9024997554  Active  27-04-2016    0.00 
387 3469 Krishan Kant Katara 2014-Aksh-BHARATPUR Mahalpur Kachhi, Dhahina Gaon  Rudawal, Roopwas  Bharatpur - 321402  9680163635  Active  06-05-2016    2.22  0.00 
388 3475 Nagendra Kumar 2014-Aksh-BHARATPUR Ashi E-Mitra, Subhash Nagar  Bharatpur   9166376312  405  Active  10-05-2016    .66  0.00 
389 3492 Arsad 2014-Aksh-BHARATPUR Emitra Paypoint DUDAWAL GP DUDAWAL TEH. NAGAR Bharatpur Rajasthan     9929229003  Active  18-05-2016    0.00 
390 3493 Hari Singh 2014-Aksh-BHARATPUR EMITRA PAY POINT VILLAGE - GOBRA, Gram Panchayat- JHANGEERPUR  TEHSIL - NADBAI, BHARATPUR undefined  8290043324  Active  18-05-2016    0.00 
391 3517 Koushal Kumar 2014-Aksh-BHARATPUR Plot No. 55, 56 Tilak Nagar  Bharatpur   9460013498  521  Active  24-05-2016    169.51  0.00 
392 3528 Gajendra Singh 2014-Aksh-BHARATPUR House No. - 44/560, Gandhi Nagar  Near Railway Colony, Bharatpur undefined  9610279875  Active  26-05-2016    200.47  0.00 
393 3529 Ramesh Chand Saini 2014-Aksh-BHARATPUR Ramesh E-Mitra Centre Halena Road, Nadbai  Bharatpur   9887337792  60  Active  26-05-2016    261.21  0.00 
394 3531 Maneesh Kumar 2014-Aksh-BHARATPUR Atal Seva Kendra, Saheda  Kaman, Bharatpur undefined  8502987604  Active  27-05-2016    10.37  0.00 
395 3537 Sonu Singh 2014-Aksh-BHARATPUR Village- Naroli, Tehsil - Bayana  Bharatpur   9462927787  Active  27-05-2016    .03  0.00 
396 3580 Rahil 2014-Aksh-BHARATPUR SAHSAN PAHADI BHARATPUR    9785407856  Active  11-06-2016    -12.67  0.00 
397 3583 Gopal Prasad Sahu 2014-Aksh-BHARATPUR Nala Bazar, Ward No. - 7  Kaman, Bharatpur undefined  8829800860  Active  11-06-2016    8.46  0.00 
398 3584 Dharmveer Singh 2014-Aksh-BHARATPUR Holy Mohalla, 4 Thok Vill. Post - Jaghina  Bharatpur   9461460292  Active  11-06-2016    .56  0.00 
399 3639 Prince Kumar Singhal 2014-Aksh-BHARATPUR Singhal Computers, Buddh Ki Hat  Bharatpur   7734909092  463  Active  04-07-2016    1309.19  0.00 
400 3640 Mohan Singh 2014-Aksh-BHARATPUR NEAR SURJEET SCHOOL PAIBAG BHARATPUR    9460012435  137  Active  04-07-2016    350.64  0.00 
401 3641 Alam Ali 2014-Aksh-BHARATPUR Village - Sablana, Tehsil - Kaman  District - Bharatpur   9252525751  10  Active  04-07-2016    561.21  0.00 
402 3642 Mamta Gupta 2014-Aksh-BHARATPUR BANSI PAHAR PUR ROAD RUDAWAL BHARATPUR    9828941084  Active  04-07-2016    8.78  0.00 
403 3643 Mamta Kumari 2014-Aksh-BHARATPUR Hijdon Ka Atta, Kumher Gate  Bharatpur    9460480429  Active  04-07-2016    16.42  0.00 
404 3652 Ramveer Singh 2014-Aksh-BHARATPUR Emitra Pay Point Village - Gundgoan, Grampanchayat - Nandera Kaman  Bharatpur, Rajasthan undefined  8058045874  Active  05-07-2016    0.00 
405 3653 Pushpendra Singh 2014-Aksh-BHARATPUR Emitra Pay Point Village - Bikaru, Granmpanchayat - Akheghar Nadbai  Bharatpur, Rajasthan undefined  8239008232   Active  05-07-2016    0.00 
406 3654 Maharaj Singh 2014-Aksh-BHARATPUR Emitra Pay Point Village - Amar Singh Ka Bas  Grampanchayat- Basburja Nagar, Bharatpur   9772155981  Active  05-07-2016    0.00 
407 3655 Dharmendra Singh 2014-Aksh-BHARATPUR Emitra Pay Point Village - Raipur, Grampanchayat - Bhatpura Nagar  Bharatpur, Rajasthan undefined  8290150771  Active  05-07-2016    0.00 
408 3656 Maharaj Singh 2014-Aksh-BHARATPUR Emitra Pay Point Village And Post - Barauli Dhau, Tehsil - Kaman   Bharatpur, Rajasthan undefined  9929223200  Active  05-07-2016    0.00 
409 3686 Pokhan Singh 2014-Aksh-BHARATPUR PAHARSAR CHAURAHA SHAHPUR NADBAI Bharatpur Rajasthan     8769839328  Active  20-07-2016    161.19  0.00 
410 3687 Mayank Jain 2014-Aksh-BHARATPUR JAIN EMITRA CENTRE JAMA MASJID NAVEEN CITY SCHOOL BHARATPUR    8386962733  Active  20-07-2016    25.53  0.00 
411 3688 Ravindra 2014-Aksh-BHARATPUR YASH E-MITRA CENTRA, V-KHADERA   P-KOOMA Th-BHARATPUR   9587171516  135  Active  20-07-2016    133.2  0.00 
412 3706 Satyendra Singh 2014-Aksh-BHARATPUR SAKSHM EMITRA INDRA NAGAR HEERADAS BHARATPUR    7023555680  Active  05-08-2016    .8  0.00 
413 3707 Yogesh 2014-Aksh-BHARATPUR Bapu Bazar Nagar Bharatpur    9828472845  585  Active  08-08-2016    614.18  0.00 
414 3727 Pankaj Pahuja 2014-Aksh-BHARATPUR PANKAJ EMITRA NEAR SAPANDEEP CYCLE STORE BASAN GATE BHARATPUR    9785427421  Active  22-08-2016    -17.35  0.00 
415 814 Aqeela Parveen 2014-Comtech Institute of Technology-Bharatpur In Front of New  Tehsil Kaman Bharatpur  9001892350  21  Active  26-08-2014    .35  0.00 
416 840 Amarjeet Singh 2014-Comtech Institute of Technology-Bharatpur V+P Sahasan  Tehsil - Pahari Disst. - Bharatpur  8503801959  Active  03-09-2014    -498.96  0.00 
417 867 Sanjay Singh 2014-Comtech Institute of Technology-Bharatpur INFRONT OF STADIUM, JASWANT     9660718564  Active  15-09-2014    .5  0.00 
418 868 Nobat Singh 2014-Comtech Institute of Technology-Bharatpur Nobat E - Mitra Center Ibrahimpur Roopwas Bharatpur  9694407982  10  Active  15-09-2014    2.25  0.00 
419 960 DEEPAK KUMAR 2014-Comtech Institute of Technology-Bharatpur Village-RUPBAS BLOCK -RUPBAS DIS- BHARATPUR  9549786858  Active  08-10-2014    .61  0.00 
420 1053 Yogesh Kumar 2014-Comtech Institute of Technology-Bharatpur KALYAN MOHALLA WORD NO.15 KAMAN BHARTAPUR    9875114960  Active  21-11-2014    17.45  0.00 
421 1069 Ram Niwas Saini 2014-Comtech Institute of Technology-Bharatpur NEAR GOVT. HOSPITAL, BHUWASAR  DISTT- BHARATPUR   9587082198  24  Active  26-11-2014    348.25  0.00 
422 1108 Ravi Kumar Holker 2014-Comtech Institute of Technology-Bharatpur VILL-BORAI,TEHSIL-KUMHER DISTRICT-BHARATPUR   8952827211  Active  10-12-2014    -8.61  0.00 
423 1117 Rohit Sharma 2014-Comtech Institute of Technology-Bharatpur A - 270 Jawahar Nagar Bharatpur   9694780460  Active  15-12-2014    8.78  0.00 
424 1119 Jeetendra singh Dagur 2014-Comtech Institute of Technology-Bharatpur Vill -Purabai khera The - Bayana Dist - Bharatpur  9928690092  Active  15-12-2014    .93  0.00 
425 1123 Jeetu Goyal 2014-Comtech Institute of Technology-Bharatpur NAGAR ROAD, KOTWALI K SAMNE  DEEG, DISTT- BHARATPUR undefined  05641224021  Active  17-12-2014    17.82  0.00 
426 1237 Vishambar 2014-Comtech Institute of Technology-Bharatpur VILLAGE.POST.KHANUA TH.RUPBAS DIST.BHARTAPUR    9887622305  Active  29-12-2014    .03  0.00 
427 1457 Samim Khan 2014-Comtech Institute of Technology-Bharatpur Seekri Chak No. 1 Sikri Nagar Bharatpur    9929337831  Active  14-03-2015    .04  0.00 
428 1484 Mukesh Chand 2014-Comtech Institute of Technology-Bharatpur Atal Seva Kendra Khemra Kalan    9694775375  326  Active  23-03-2015    9.02  0.00 
429 1514 Mohan Singh 2014-Comtech Institute of Technology-Bharatpur CHHONKAWADA BHUSWAR BHARATPUR    8385834352  Active  25-03-2015    -500.42  0.00 
430 1515 Sonu Ram Saini 2014-Comtech Institute of Technology-Bharatpur OLD SABZI MANDI BHUSAWARBHARATPUR    9785004950  Active  25-03-2015    921.94  0.00 
431 1817 Ankit Kuntal 2014-Comtech Institute of Technology-Bharatpur G.P Talphara Tehsil Kumher Bharatpur    9785717239  Active  08-04-2015    .52  0.00 
432 1851 Shokeen 2014-Comtech Institute of Technology-Bharatpur ATAL SEWA KENDRA , BAMANWARI, PAHADI BHARATPUR   BHARATPUR  7877919161  Active  14-04-2015    .97  0.00 
433 1853 Omprakash 2014-Comtech Institute of Technology-Bharatpur V&P MAI, NADBAI  BHARATPUR   9001126308  62  Active  14-04-2015    .31  0.00 
434 1963 Chhitar 2014-Comtech Institute of Technology-Bharatpur V&P MAI, NADBAI  BHARATPUR   9636674391  Active  20-04-2015    .54  0.00 
435 2170 Hakmu 2014-Comtech Institute of Technology-Bharatpur ATAL SEVA KENDRA, DHAULET  PAHARI, BHARATPUR undefined  9887812410  Active  26-05-2015    .75  0.00 
436 2493 Bhagat Singh 2014-Comtech Institute of Technology-Bharatpur PAWAN KUNJ COLONY, KAMAN  BHARATPUR   9571816262  Active  31-08-2015    .39  0.00 
437 2494 Dayachand 2014-Comtech Institute of Technology-Bharatpur INDROLI, CHHICHHARWADI  KAMAN, BHARATPUR undefined  8058248257  Active  31-08-2015    .41  0.00 
438 2566 Geetam Singh 2014-Comtech Institute of Technology-Bharatpur ROOPWAS, MILSVA  KHERIYA BILLOCH   9001115145  Active  08-10-2015    .37  0.00 
439 2609 Sunil Kumar 2014-Comtech Institute of Technology-Bharatpur B-NARAYAN GATE DHOBI MOHALLA BHARATPUR    8946908790  Active  30-10-2015    8.66  0.00 
440 2610 Bharat Saini 2014-Comtech Institute of Technology-Bharatpur PURANA BUY PASS ROAD NAGAR BHARATPUR    8562010240  Active  30-10-2015    84.27  0.00 
441 2611 Dashrath 2014-Comtech Institute of Technology-Bharatpur RUDABAL ROAD JUHGLA PATTI,UCHCHAIN  RUPBAS BHARATPUR    8504085436  Active  30-10-2015    3.25  0.00 
442 2629 Gulshan Singal 2014-Comtech Institute of Technology-Bharatpur B.NARAYAN GATE,ATAL BANDH ROAD BHARATPUR   7791033074  24  Active  05-11-2015    33.29  0.00 
443 2630 Hitesh Kumar 2014-Comtech Institute of Technology-Bharatpur WARD NO. 19, SONPURA TILAK NAGAR BHARATPUR   9587827377  Active  05-11-2015    -16.81  0.00 
444 2632 Prem Chand Saini 2014-Comtech Institute of Technology-Bharatpur KANJALI LINE DEEG ROAD BHARATPUR    9680883288  22  Active  05-11-2015    3.76  0.00 
445 2641 Yunus Khan 2014-Comtech Institute of Technology-Bharatpur VPO-BHATPUR,TECH-NAGAR BHARATPUR   7073793419  Active  10-11-2015    .67  0.00 
446 2655 Madhvendra Kumar 2014-Comtech Institute of Technology-Bharatpur BEHIND OLD LAXMAN MANDIR, BHARATPUR    7610921914  Active  24-11-2015    3.2  0.00 
447 2741 Mazzal Khan 2014-Comtech Institute of Technology-Bharatpur VILL- JATWAS, UDKI DALLA  NAGAR, BHARATPUR undefined  9672281484  Active  14-12-2015    14.68  0.00 
448 2743 Indrajeet Singh 2014-Comtech Institute of Technology-Bharatpur Santruk Kumher Bharatpur    9785615761  Active  14-12-2015    .09  0.00 
449 2767 Laxman Singh 2014-Comtech Institute of Technology-Bharatpur AGRASEN SCHOOL KE PASS, SUBHASH NAGAR   BHARATPUR   8058202702  Active  04-01-2016    17.05  0.00 
450 2768 Gulab Singh 2014-Comtech Institute of Technology-Bharatpur GP- GULPADA, BLOCK- NAGARR  BHARATPUR   8875996440  36  Active  04-01-2016    37.54  0.00 
451 2795 Teerath Raj 2014-Comtech Institute of Technology-Bharatpur SALPURPATHI , SIKARI NAGAR, BHARATPUR undefined  9549083991  113  Active  06-01-2016    242.65  0.00 
452 2796 Umesh Chand Saini 2014-Comtech Institute of Technology-Bharatpur VILL- NAYAMADPUR, POST- DHARSONI  WEIR , BHARATPUR undefined  9571805384  100  Active  06-01-2016    -34.38  0.00 
453 2797 Hitesh Goyal 2014-Comtech Institute of Technology-Bharatpur SUB TEHSIL OFFICE PARAH, BHARATPUR    7891307585  Active  06-01-2016    .11  0.00 
454 2798 Jeetesh Kumar 2014-Comtech Institute of Technology-Bharatpur VPO- KHARERA, UCHAIN   ROOPWAS, BHARATPUR undefined  9887546526  Active  06-01-2016    .94  0.00 
455 2799 Sanjay Singh Yadav 2014-Comtech Institute of Technology-Bharatpur VILL- GULPADA, NAGAR  BHARATPUR   9928795656  Active  06-01-2016    85.12  0.00 
456 2800 Harvendra Kumar 2014-Comtech Institute of Technology-Bharatpur Atal Sewa Kendra, Gram Pachayat Dumariya Tehsil Roopwas, Bharatpur   9983939425  Active  06-01-2016    .9  0.00 
457 2801 Munfaid Khan 2014-Comtech Institute of Technology-Bharatpur JUMMA BANAINI DHONLKA, PADALWAS  TEH-NAGAR, BHARATPUR undefined  9610567110  Active  06-01-2016    .59  0.00 
458 2802 Vishnu Kumar 2014-Comtech Institute of Technology-Bharatpur GP- SOUMKA, TEH- KAMAN  BHARATPUR   9672439280  Active  06-01-2016    .93  0.00 
459 2804 Parshottam 2014-Comtech Institute of Technology-Bharatpur KANWARA , TEHSIL- KAMAN  BHARATPUR   8740976447  Active  06-01-2016    .39  0.00 
460 2805 Sirajuddin 2014-Comtech Institute of Technology-Bharatpur ATAL SEWA KENDRA SOMKA, KAMAN  BHARATPUR   8696614061  Active  06-01-2016    .07  0.00 
461 2808 Ravindra Singh 2014-Comtech Institute of Technology-Bharatpur NEAR KANNI GURJAR CIRCLE, BHARATPUR    9928902445  Active  06-01-2016    -16.76  0.00 
462 2860 Uttamchand Sharma 2014-Comtech Institute of Technology-Bharatpur ATAL SEVA KENDRA PAR, SEWAR  BHARATPUR   9828356142  Active  19-01-2016    17.4  0.00 
463 2861 Devendra Sharma 2014-Comtech Institute of Technology-Bharatpur ATAL SEVA KENDRA PINGORA, NADBAI  BHARATPUR   8739826723  20  Active  19-01-2016    .61  0.00 
464 2868 Veerendra Kumar 2014-Comtech Institute of Technology-Bharatpur BYANA ROAD JARILA, BHAWANPURA  ROOPBAS, BHARATPUR undefined  9772300192  Active  25-01-2016    .58  0.00 
465 2869 Omprakash 2014-Comtech Institute of Technology-Bharatpur EMITRA PAY POINT NAGLA MAI, GP- MAI  NADMAI, BHARATPUR undefined  9001126308  Active  25-01-2016    .88  0.00 
466 2875 Bajib 2014-Comtech Institute of Technology-Bharatpur VILL DUNAWAL, NAGAR   BHARATPUR   9057977653  Active  28-01-2016    .49  0.00 
467 2876 Lavesh Mudgal 2014-Comtech Institute of Technology-Bharatpur SHARMA EMITRA KENDRA, KHEDIYA MODE  NADBAI, BHARATPUR undefined  7737303119  Active  28-01-2016    -16.76  0.00 
468 2877 Rajveer Singh 2014-Comtech Institute of Technology-Bharatpur NET WEB SOFT EMITRA CENTER, NEAR SARAS HOTEL  VIJAYNAGAR, BHARATPUR undefined  8233196869  Active  28-01-2016    .39  0.00 
469 2881 Vivek Kumar 2014-Comtech Institute of Technology-Bharatpur ATAL SEVA KANDRA DAHINA GAUV,ROOPBAS BHARATPUR   8058329140  Active  28-01-2016    .94  0.00 
470 2902 Anil Kumar 2014-Comtech Institute of Technology-Bharatpur NEAR BUS STAND PAHARI,BHARATPUR    9509274849  Active  02-02-2016    -103.87  0.00 
471 2905 Satyendra Singh 2014-Comtech Institute of Technology-Bharatpur VILL-MUDHERA,BHARATPUR    9460925072  Active  02-02-2016    .52  0.00 
472 2936 Jitendra Kumar 2014-Comtech Institute of Technology-Bharatpur E-MITRA PAY POINT JURHARIGP:PAI, KAMAN BHARATPUR    8440810723  Active  04-02-2016    150.09  0.00 
473 2985 Susheela Devi 2014-Comtech Institute of Technology-Bharatpur E-MITRA PAY POINT BIRAR GP:SABLANA KAMAN BHARATPUR    9680135253  Active  09-02-2016    609.11  0.00 
474 3008 Dharm Singh 2014-Comtech Institute of Technology-Bharatpur CHHOTE RAM JI MANDIR, HIGH SCHOOL KE PASS  KAMAN, BHARATPUR undefined  9549914172  Active  12-02-2016    .17  0.00 
475 3010 Bhola Ram 2014-Comtech Institute of Technology-Bharatpur NIKKI COMPUTERS & EMITRA CENTER NAJDEEKI PETROL PUMP KE SAMNE, PAHARI  BHARATPUR   9529825570  Active  12-02-2016    .69  0.00 
476 3012 Abhay Singh Chaudhary 2014-Comtech Institute of Technology-Bharatpur ATAL SEVA KENDRA , WEIR  BHARATPUR   9929452588  Active  12-02-2016    .9  0.00 
477 3050 Kumarpal 2014-Comtech Institute of Technology-Bharatpur VPO- BARAHI, DEEG  BHARATPUR   9887691796  Active  17-02-2016    .7  0.00 
478 3051 Neha Jain 2014-Comtech Institute of Technology-Bharatpur INDRA CHOWK KUMHER,TEH-KUMHER BHARATPUR   9460877077  Active  17-02-2016    .19  0.00 
479 3072 Ramgopal Singh 2014-Comtech Institute of Technology-Bharatpur E-MITRA PAY POINT KARUA GP:TAMRER, KUMHER BHARATPUR    9694924192  Active  23-02-2016    .02  0.00 
480 3096 Zakir Husain 2014-Comtech Institute of Technology-Bharatpur EMITRA PAY POINT RANIYALA,GP-JAISHREE PS-NAGAR,BHARATPUR undefined  9772307016  Active  29-02-2016    19.11  0.00 
481 3143 Nagendra Singh 2014-Comtech Institute of Technology-Bharatpur Heeradas Central Bus Stand Ke Samne, Khadi Bhandar Ki Bagal Main  Bharatpur   9166862393  Active  03-03-2016    -51.62  0.00 
482 3144 Tahir Mohammad 2014-Comtech Institute of Technology-Bharatpur ATAL SEVA KENDRA LADAMKA, PS- PAHARI  BHARATPUR   9828554381  Active  03-03-2016    .62  0.00 
483 3284 Sirajuddin 2014-Comtech Institute of Technology-Bharatpur VILL-DHANA,GP-SOMKA TEH-PAHARI,BHARATPUR undefined  8696614061  Active  01-04-2016    0.00 
484 3285 Mustufa 2014-Comtech Institute of Technology-Bharatpur EMITRA PAY POINT KHERIL NANOO,GP-GHOSEENGA PS-PAHAI,BHARATPUR undefined  8058532828  Active  01-04-2016    1.83  0.00 
485 3360 Saurabh Kumar 2014-Comtech Institute of Technology-Bharatpur NEAR BAGARWALA SHOWROOM,OLD LAXMAN MANDIR BHARATPUR   8058577992  Active  14-04-2016    166.14  0.00 
486 3393 Satyapal Harsainia 2014-Comtech Institute of Technology-Bharatpur TODAY INFORMATICS CENTER, INDRA NAGAR  HEERADAS, BHARATPUR undefined  7597412603  Active  21-04-2016    .73  0.00 
487 3460 Bhawani Singh Yadav 2014-Comtech Institute of Technology-Bharatpur VPO- PALKA, TEH- NAGAR  BHARATPUR   9672831095  23  Active  05-05-2016    52.21  0.00 
488 3461 Yogesh 2014-Comtech Institute of Technology-Bharatpur BEHIND ANAND SCHOOL, SHASTRI NAGAR   BHARATPUR   8385999640  Active  05-05-2016    -16.49  0.00 
489 3470 Manish 2014-Comtech Institute of Technology-Bharatpur ATAL SEVA KENDRA BARAI, DEEG  BHARATPUR   8440017001  Active  10-05-2016    51.24  0.00 
490 3509 Mahendra Kumar 2014-Comtech Institute of Technology-Bharatpur SIKARI CHAK NO 1,VILL-SIKARI PS-NAGAR,BHARATPUR undefined  9667935096  Active  24-05-2016    .64  0.00 
491 3512 Pankaj Sharma 2014-Comtech Institute of Technology-Bharatpur 351, RAJENDRA NAGAR  BHARATPUR   9024151282  Active  24-05-2016    1.47  0.00 
492 3525 Love Kumar 2014-Comtech Institute of Technology-Bharatpur EMITRA PAY POINT JAREELA,GP- BHAVANPURA  RUPBAS, BHARATPUR  undefined  9982751032  Active  25-05-2016    .9  0.00 
493 3530 Shivjeet 2014-Comtech Institute of Technology-Bharatpur ANAND NAGAR, SEWAR BYPASS  BHARATPUR   9887996296  Active  26-05-2016    .53  0.00 
494 3542 Pradeep Kumar Saini 2014-Comtech Institute of Technology-Bharatpur BANKEY BIHARI EMITRA CENTER, NEAR CANERA BANK  NADBAI, BHARATPUR undefined  8963891892  Active  30-05-2016    .61  0.00 
495 3622 Pramod Kumar 2014-Comtech Institute of Technology-Bharatpur NEAR NAND PETROL PUMP, PAHARI ROAD  KAMAN , BHARATPUR undefined  9680195434  Active  27-06-2016    .68  0.00 
496 3623 Sumundara Singh 2014-Comtech Institute of Technology-Bharatpur AMBEDKAR CHOK, TEH-KAMAN  BHARATPUR   9785687903  80  Active  27-06-2016    .16  0.00 
497 3624 Shri Ram Sharma 2014-Comtech Institute of Technology-Bharatpur NEAR HINDI PUSTKALAY, NEEM GHATA MOHALLA  DEEG, BHARATPUR undefined  9413591580  Active  27-06-2016    0.00 
498 3625 Tejpal 2014-Comtech Institute of Technology-Bharatpur BHUDA GATE , DEEG BHARATPUR    9785621522  Active  27-06-2016    0.00 
499 3626 Karan Singh Choudhary 2014-Comtech Institute of Technology-Bharatpur VPO- BARASO, BHARATPUR    9783826851  Active  27-06-2016    .16  0.00 
500 3627 Lokendra Mauhviya 2014-Comtech Institute of Technology-Bharatpur VILL- BAROLI CHOUITH, DEEG   BHARATPUR   9929750657  63  Active  27-06-2016    .67  0.00 
501 3693 Niraj Jain 2014-Comtech Institute of Technology-Bharatpur TOLAN CHOK JURHERA TEH. KAMAN DIST. BHARATPUR    9785478293  Active  25-07-2016    -16.8  0.00 
502 3729 Ramkumar 2014-Comtech Institute of Technology-Bharatpur Vill-Tontpur,Moloni Khurd Roopwas,Bharatpur undefined  9887276357  Active  23-08-2016    .71  0.00 
503 3730 Jitendra Kumar 2014-Comtech Institute of Technology-Bharatpur KALLAR MOHALLA, PAI  KAMAN, BHARATPUR undefined  8440810723  Active  24-08-2016    .13  0.00 
504 3737 Hemendra Singh 2014-Comtech Institute of Technology-Bharatpur Vpo-Paprera ,Teh. -Kumher Bharatpur    8442072741  Active  31-08-2016    8.43  0.00 
505 3738 Subhash Chand Sharma 2014-Comtech Institute of Technology-Bharatpur Raghav Colony Wair Bharatpur    9829634452  1770  Active  31-08-2016    17.35  0.00 
506 3761 Lekhraj Bhardwaj 2014-Comtech Institute of Technology-Bharatpur Near Kali Ki Bagichi Bajrang Vihar Colony Bharatpur    9309228428  Active  05-09-2016    0.00 
507 3762 Yogesh Kumar Singhal 2014-Comtech Institute of Technology-Bharatpur Nagla Khushpan Post Nawali Teh.-Bayana    8441909957  Active  05-09-2016    0.00 
508 3763 Gopi Chand 2014-Comtech Institute of Technology-Bharatpur Bodali, NagarBahatpur    9983572781  Active  05-09-2016    0.00 
509 3766 Jeetendra Singh 2014-Comtech Institute of Technology-Bharatpur Vpo-Thakhha,Teh -Kumher Bharatpur    8003503692  Active  08-09-2016    0.00 
510 3775 Anju Goyal 2014-Comtech Institute of Technology-Bharatpur Hospital Road RudawalBharatpur    8432325569  Active  19-09-2016    0.00 
511 3776 Jai Prakash 2014-Comtech Institute of Technology-Bharatpur Vpo-Bartai ,Tehsil-Kumer  Dist.-Bharatpur   9602087676  Active  21-09-2016    0.00 
512 3777 Ashok Kumar 2014-Comtech Institute of Technology-Bharatpur Jhalatala Moloni Wair Bharatpur    9413654845  Active  21-09-2016    0.00 
513 3778 Uttam Singh Yadav 2014-Comtech Institute of Technology-Bharatpur Daural,Post-Berroo Teh.-NagarBharatpur   9785471783  Active  21-09-2016    0.00 
514 1435 Yashwant Yadav 2014-CMS eMitra-Bharatpur GARM BISDA POST JHAROLI SEWAR BHARATPUR    8432182838  Active  02-03-2015    .62  0.00 
515 1511 Mahesh Chand 2014-CMS eMitra-Bharatpur Gram Sendhli Weir Bharatpur    9887091919  Active  25-03-2015    -205.73  0.00 
516 1512 Bhagwan Singh 2014-CMS eMitra-Bharatpur Gram Itamda Bhusawar Bharatpur    9887847501  Active  25-03-2015    34.27  0.00 
517 2134 Naresh Chand Gupta 2014-CMS eMitra-Bharatpur KAKAJI MARKET KE PASS CHOUBURJA BAZAR BHARATPUR    9413650001  Active  14-05-2015    -16.55  0.00 
518 2221 Indar Singh 2014-CMS eMitra-Bharatpur GRAM-GIVINDPURA POST-MUHARI WEIR BHARATPUR    05643272582  Active  29-05-2015    .14  0.00 
519 2481 Govind Singh 2014-CMS eMitra-Bharatpur BAGHEL PHOTO STATE,HELAK CHORAHA  SAVER, BHARATPUR undefined  9785139859  Active  28-08-2015    5.71  0.00 
520 2592 Prabhu Dayal 2014-CMS eMitra-Bharatpur GRAM PANHORI TEH. DEEG BHARATPUR    9785622773  Active  19-10-2015    -23.42  0.00 
521 3057 Rajkumar 2014-CMS eMitra-Bharatpur Umra,Au.Deeg Bharatpur   9982240193  Active  17-02-2016    0.00 
522 3374 Vishal 2014-CMS eMitra-Bharatpur Vishal Emitra Center Binarayan Gate Bharatpur    8502879450  Active  18-04-2016    .87  0.00 
523 3429 Suresh Chand 2014-CMS eMitra-Bharatpur Emitra Pay PointGram Arauda Hantra Nadbai Bharatpur    9057778495  Active  29-04-2016    71.74  0.00 
524 3430 Pooran Singh 2014-CMS eMitra-Bharatpur Emitra Pay PointGram Sadhpura Purwai Kheda Bayana Bharatpur    7690951414  Active  29-04-2016    0.00 
525 3431 Ramveer Singh 2014-CMS eMitra-Bharatpur Emitra Pay PointGram Thikariya Brodha Bayana Bharatpur    8696546769  Active  29-04-2016    .51  0.00 
526 3432 Jawahar Singh 2014-CMS eMitra-Bharatpur Emitra Pay PointGram Bhootka Muriya Nagar Bharatpur    9929816348  Active  29-04-2016    0.00 
527 3433 Sunil Kumar 2014-CMS eMitra-Bharatpur Emitra Pay PointGram Sasaina Weir Bharatpur    8094505869  Active  29-04-2016    0.00 
528 3436 Meghraj 2014-CMS eMitra-Bharatpur Emitra Pay PointGram Kurkain Aalamshah Nagar Bharatpur    8058912838  Active  29-04-2016    0.00 
529 3437 Lakhan Singh 2014-CMS eMitra-Bharatpur Emitra Pay PointGram Khanpur Jarothi Weir Bharatpur    9549126940  Active  29-04-2016    0.00 
530 3439 Pankaj Kumar Verma 2014-CMS eMitra-Bharatpur Emitra Pay PointGram+Post Bachhren Wair Bharatpur    8441809880  Active  29-04-2016    0.00 
531 3440 Arif Khan 2014-CMS eMitra-Bharatpur Emitra Pay PointGram Arsi Nagar Bharatpur    9672204915  Active  29-04-2016    0.00 
532 3480 Jaiveer Singh 2014-CMS eMitra-Bharatpur Emitra Pay PointGram Habeebpur Post Par Sewar Bharatpur    9460454182  Active  17-05-2016    7.53  0.00 
533 3481 Ravindra Kumar Verma 2014-CMS eMitra-Bharatpur Emitra Pay PointGram  Salempur Khurd Post Salempur Khurd The. Bhusawar Bharatpur    8058947783  Active  17-05-2016    28.87  0.00 
534 3482 Salman Khan 2014-CMS eMitra-Bharatpur Emitra Pay Point Gram Chak Cheluwa, Fatehpur Nagar Bharatpur    8058481135  Active  17-05-2016    0.00 
535 3483 Jaikam Khan 2014-CMS eMitra-Bharatpur Vill. Semla Kalan, Teh. Nagar  Bharatpur.   9887156024  Active  17-05-2016    0.00 
536 3484 Lekhraj 2014-CMS eMitra-Bharatpur Emitra Pay PointGram Kumharedi Chirawal Mali Nagar Bharatpur    8440029807  Active  17-05-2016    0.00 
537 3485 Islam 2014-CMS eMitra-Bharatpur Emitra Pay PointGram Vadhaka Aalamshah Nagar Bharatpur    9672106851  Active  17-05-2016    0.00 
538 3486 Lakhan Singh 2014-CMS eMitra-Bharatpur Emitra Pay PointGram Nagla Khatka NahroliRudawal Bayana Bharatpur    8058673074  Active  17-05-2016    0.00 
539 3487 Ramveer Singh 2014-CMS eMitra-Bharatpur Emitra Pay PointGram Jaghina Sewar Bharatpur    7222877701  Active  17-05-2016    0.00 
540 3488 Soran Singh 2014-CMS eMitra-Bharatpur Emitra Pay Point Gram Ravidaspura Gangwak Nagar Bharatpur    9772656530  Active  17-05-2016    0.00 
541 3489 Vahid Khan 2014-CMS eMitra-Bharatpur Emitra Pay Point Gram Gahankar Pandaka Nagar Bharatpur    9549811391  Active  17-05-2016    .74  0.00 
542 3490 Shashi Kumar 2014-CMS eMitra-Bharatpur Emitra Pay Point Gram Rund Helak Bari Rund Helak Kumher Bharatpur    8560934380  Active  17-05-2016    0.00 
543 3494 Bhedram 2014-CMS eMitra-Bharatpur V PO Bhandara Teh. Kaman Bharatpur    9672110566  Active  20-05-2016    28.48  0.00 
544 3495 Mohammad Ali Khan 2014-CMS eMitra-Bharatpur Emitra Pay PointGram Birgawan Fetehpur Kalan Nagar Bharatpur    9610567121  Active  23-05-2016    0.00 
545 3496 Aslam Khan 2014-CMS eMitra-Bharatpur Emitra Pay PointGram Somsi Fetehpur Kalan Nagar Bharatpur    7665375275  Active  23-05-2016    0.00 
546 3497 Dharam Singh 2014-CMS eMitra-Bharatpur Salempur Khurd, Bharatpur.    7665905955  Active  23-05-2016    0.00 
547 3498 Puspendra Singh 2014-CMS eMitra-Bharatpur Vill. Bagh Ka Nagla.Talphara,Kumher  Bharatpur.   8890666151  Active  23-05-2016    0.00 
548 3499 Gopesh Kumar Jatav 2014-CMS eMitra-Bharatpur Emitra Pay PointGram Uloo Kamalpura Bhusawar Bharatpur    9166708911  Active  23-05-2016    0.00 
549 3500 Omprakash 2014-CMS eMitra-Bharatpur Emitra Pay PointGram Jindpura Baridha Roopwas Bharatpur     8740052097  Active  23-05-2016    0.00 
550 3501 Bachchu Singh 2014-CMS eMitra-Bharatpur Emitra Pay Point Bhagora Lakhanpur Weir Bharatpur    9602599476  Active  23-05-2016    0.00 
551 3502 Ajeet Kumar 2014-CMS eMitra-Bharatpur Emitra Pay PointGram Gunsara Kumher Bharatpur    7792826642  Active  23-05-2016    0.00 
552 3503 Mahendra Singh 2014-CMS eMitra-Bharatpur Emitra Pay Point Gram Vijay Nagar Rundh Helak Bharatpur     9783184960  Active  23-05-2016    0.00 
553 3504 Asalam Khan 2014-CMS eMitra-Bharatpur Emitra Pay Point Gram Veerthala Mudoti Nagar Bharatpur    9928212380  Active  23-05-2016    0.00 
554 3657 Akram 2014-CMS eMitra-Bharatpur Emitra Pay PonitGram Paltoo Thun Nagar Bharatpur    9928212380  Active  07-07-2016    0.00 
555 3658 Amrit Singh 2014-CMS eMitra-Bharatpur Emitra Pay Point Gram Khadraya Bhesina Bharatpur    8432369788  Active  07-07-2016    0.00 
556 3659 Mahendra Singh 2014-CMS eMitra-Bharatpur Emitra Pay Point Gram Saindoli Nadbai Bharatpur    8058120129  Active  08-07-2016    .51  0.00 
557 3668 Vierendra Kumar 2014-CMS eMitra-Bharatpur Emitra Kiosk Tilak Nagar Bharatpur    8875785698  Active  08-07-2016    118.14  0.00 
558 3669 Shubham Kumar Saini 2014-CMS eMitra-Bharatpur Out Side B Narayan Gate Kaccha Kunda Ghana Road Bharatpur    8502966929  100  Active  08-07-2016    176.53  0.00 
559 3670 Kuldeep Singh 2014-CMS eMitra-Bharatpur Main Market Kumher Bharatpur    9460075143  25  Active  08-07-2016    360.14  0.00 
560 3671 Raju 2014-CMS eMitra-Bharatpur Rathi Studio Binarayan Gate Bharatpur    9983940515  595  Active  08-07-2016    459.36  0.00 
561 3685 Jitendra Kumar 2014-CMS eMitra-Bharatpur Brij Nagar Bharatpur    9784986859  Active  18-07-2016    2.52  0.00 
562 833 pradlad shing 2014-Vakrangee-Bharatpur jaya usrani kumher bharatpur   9667039751  43  Active  02-09-2014    251.96  0.00 
563 834 moti ram 2014-Vakrangee-Bharatpur khan khera dist:- bharatpur   8890214708  Active  02-09-2014    .41  0.00 
564 836 pushp lata 2014-Vakrangee-Bharatpur vpo-jharonti block-weit bharatpur  9414681595  Active  02-09-2014    .14  0.00 
565 837 Shyambeer Chauhan 2014-Vakrangee-Bharatpur vpo-kharera block:-rupbas bharatpur  9414975080  Active  02-09-2014    .76  0.00 
566 838 radhe shyam 2014-Vakrangee-Bharatpur singhara block bayana bharatpur  9887368316  Active  02-09-2014    40.18  0.00 
567 839 Pramod Kumar 2014-Vakrangee-Bharatpur VPO - Siras BLOCK - Weirs Dist - Bharatpur  9887223330  Active  03-09-2014    .21  0.00 
568 844 Raj kumar 2014-Vakrangee-Bharatpur VPO - Reethauthi Block - Kunher Dist - Bharatpur  9783924366  82  Active  03-09-2014    426.61  0.00 
569 848 Ravindra Kumar Meena 2014-Vakrangee-Bharatpur VPO- Chaintoli, Block - Weir Dist. - Bharatpur  9468666284  18  Active  04-09-2014    5.28  0.00 
570 849 Ashok Lawaniya 2014-Vakrangee-Bharatpur VPO- Halena,  Block - Weir Dist. - Bharatpur  9414903955  1042  Active  04-09-2014    -12.37  0.00 
571 850 Uttam Singh 2014-Vakrangee-Bharatpur nagla Tehriy An Mafi F/P-N Tehriy A Mafi Block - Rupbas Disst. - Bharatpur  9828911272  Active  04-09-2014    310.96  0.00 
572 852 Raju Singh 2014-Vakrangee-Bharatpur Takha, G/P - Ta Kha  block - Kumher Disst. - Bharatpur  9694341720  127  Active  04-09-2014    149.66  0.00 
573 853 Lokesh Kumar 2014-Vakrangee-Bharatpur Kot  Bayana Bharatpur  9799320408  Active  04-09-2014    -1734.56  0.00 
574 854 Prathveeraj 2014-Vakrangee-Bharatpur Baroda Ayana Disst. - Bhartpur  8003686804  12  Active  04-09-2014    .53  0.00 
575 903 Gaurav Kumar 2014-Vakrangee-Bharatpur VPO- Khandewla Block - Nagar Dist. - Bharatpur  9461080611  Active  17-09-2014    .7  0.00 
576 904 Haripal 2014-Vakrangee-Bharatpur Ward No. 13  Naharganj mohalla Kumher Bharatpur  9460659190  Active  17-09-2014    .85  0.00 
577 905 Naresh Kumar Sharma 2014-Vakrangee-Bharatpur Gangora, Nagar Bharatpur  8094577032  Active  17-09-2014    .15  0.00 
578 906 Rajesh Kumar 2014-Vakrangee-Bharatpur Nagla Heeradas, Opp Numaish Ground Bharatpur  9309314407  Active  17-09-2014    143.5  0.00 
579 922 PRADEEP SINGH 2014-Vakrangee-Bharatpur Ward no 16 Neeraj Mishthan Bhandhar Ke Pichhe Kumher Bhartpur   9166545061  Active  19-09-2014    103.59  0.00 
580 925 Poonam Chand Saini 2014-Vakrangee-Bharatpur Barauli  Weir,Bharatpur   9782754965  Active  20-09-2014    .72  0.00 
581 926 Rajendra Kumar Sharma 2014-Vakrangee-Bharatpur Sharma Computers, Khodi Mod Deeg Road, Nagar Bharatpur  9828537748  Active  20-09-2014    -.95  0.00 
582 935 Bhagwan Singh Meena 2014-Vakrangee-Bharatpur Barkhera  Bayana Bharatpur  9414890478  Active  26-09-2014    602.81  0.00 
583 936 Anil Kumar Mathur 2014-Vakrangee-Bharatpur Mathur Internet & Emitra Center Basan Gate Kotwali Bharatpur  9571511899  Active  26-09-2014    .33  0.00 
584 937 Khushi Ram 2014-Vakrangee-Bharatpur Nagla Beeja Rupbas Bharatpur  9784309994  40  Active  26-09-2014    43.22  0.00 
585 938 RAJENDRA DAGUR 2014-Vakrangee-Bharatpur Dagur emitra V/P nagar Teh- nagar near govt hospital Bhartpur   9667175659  Active  26-09-2014    1930  0.00 
586 939 Sanjay Singh 2014-Vakrangee-Bharatpur Peepla Sewar Bharatpur  9782599434  Active  26-09-2014    .41  0.00 
587 941 SHER SINGH 2014-Vakrangee-Bharatpur Cheema emitra Nand Hotel ke pass ward no 19 Bhartpur   9828580712  Active  26-09-2014    .91  0.00 
588 943 JUGAL BIHARI 2014-Vakrangee-Bharatpur Purohit emitra center kotwali bazar near sitaramji mandir Bhartpur   9783319205  Active  26-09-2014    .15  0.00 
589 945 SANJAY KUMAR 2014-Vakrangee-Bharatpur Sanjay emitra Ward no 05 Near Panchyat Samiti Sewar Bhartpur   9928816222  Active  26-09-2014    147.51  0.00 
590 959 Shiv Kumar Sharma 2014-Vakrangee-Bharatpur Marauli, Rupbas Bharatpur   9785719204  Active  08-10-2014    13.81  0.00 
591 969 Paras Ram Saini 2014-Vakrangee-Bharatpur Near Bus Stand Deeg Bharatpur   9529003555  10  Active  09-10-2014    38.41  0.00 
592 971 Rakesh 2014-Vakrangee-Bharatpur Sarvodya Nagar,ricco Road Bharatpur   9782505906  Active  09-10-2014    .8  0.00 
593 1024 Manoj Kumar 2014-Vakrangee-Bharatpur Kumher Road Bohra Market,Bharatpur    9983664711  Active  29-10-2014    383.37  0.00 
594 1025 Kali Charan 2014-Vakrangee-Bharatpur Jahangeerpur,Nadbai,Bharatpur     9602761341  Active  29-10-2014    -1131.01  0.00 
595 1026 Parasram 2014-Vakrangee-Bharatpur Talchhera,Nadbai,Bharatpur    9667865574  Active  29-10-2014    2.85  0.00 
596 1049 Bhupendra Singh 2014-Vakrangee-Bharatpur Padawali,Bayana Bharatpur   9636059531  Active  21-11-2014    .95  0.00 
597 1054 Hemendra Kumar 2014-Vakrangee-Bharatpur VPO-Dandoo,Block-Kumher Distt.-Bharatpur   9785202112  Active  21-11-2014    .9  0.00 
598 1055 Jitendra Singh 2014-Vakrangee-Bharatpur VPO-Thana Dang,Block-Bayana Distt.-Bharatpur   8740979934  Active  22-11-2014    -510.7  0.00 
599 1056 Irfan 2014-Vakrangee-Bharatpur VPO-Nagla Kundan,Block-Kaman Distt.-Bharatpur   9982562793  Active  22-11-2014    -.06  0.00 
600 1063 Jagat Singh 2014-Vakrangee-Bharatpur VPO-Karwari,Block-Bayana Distt.-Bharatpur   9875036609  Active  25-11-2014    -184.99  0.00 
601 1071 Saurabh Godha 2014-Vakrangee-Bharatpur Near Kotwali,Chauturja Bharatpur   9509618018  657  Active  26-11-2014    405.17  0.00 
602 1084 Sarita 2014-Vakrangee-Bharatpur Bahra Rekhapur,Rupbas Bharatpur   8058592215  Active  27-11-2014    .99  0.00 
603 1085 Kapil Goyal 2014-Vakrangee-Bharatpur BAYANA, BHARATPUR   RAJASTHAN,PIN CODE NO - 321401 undefined  9667548958  Active  27-11-2014    .64  0.00 
604 1087 Hemant Kumar 2014-Vakrangee-Bharatpur Nigohi,Deeg Bharatpur   8239774703  Active  27-11-2014    .43  0.00 
605 1089 Raju Pachahara 2014-Vakrangee-Bharatpur Bandha Chauth,Deeg Bharatpur   9413590442  Active  27-11-2014    .26  0.00 
606 1091 Ravi Kumar 2014-Vakrangee-Bharatpur Nahroli Deshwar,Shishwada Deeg,Bharatpur undefined  8875023730  131  Active  27-11-2014    .77  0.00 
607 1104 Narendra Kumar 2014-Vakrangee-Bharatpur VPO-Sedpura,Block-Rupbas Distt.-Bharatpur   05645276427  Active  04-12-2014    .99  0.00 
608 1114 Bhag Chand Saini 2014-Vakrangee-Bharatpur Chak Dharsoni,Block-Weir Distt.-BhAratpur   9414758409  Active  11-12-2014    .11  0.00 
609 1128 Harish Kumar 2014-Vakrangee-Bharatpur VPO-Rarah,Block-Kumher Distt.-Bharatpur   9782506026  842  Active  18-12-2014    1149.96  0.00 
610 1129 Areef Khan 2014-Vakrangee-Bharatpur Malki,Nagar Bharatpur   9828171290  10  Active  18-12-2014    .5  0.00 
611 1136 Jitendra Singh 2014-Vakrangee-Bharatpur Village Nonera Thesil Kaman    7690908990  40  Active  19-12-2014    .48  0.00 
612 1137 Rahul Bansal 2014-Vakrangee-Bharatpur Mangal Colony Rudaval    9875203203  Active  19-12-2014    134.01  0.00 
613 1138 Hardev Singh 2014-Vakrangee-Bharatpur Village Januthar Deeg Bharatpur    8504925138  Active  19-12-2014    .06  0.00 
614 1139 Ved Prakash Saini 2014-Vakrangee-Bharatpur Near Tehsil Kaman    05641230758  Active  19-12-2014    -267.56  0.00 
615 1140 Hitesh Garg 2014-Vakrangee-Bharatpur Jurhera Kaman    9549677294  Active  19-12-2014    .51  0.00 
616 1219 Rajveer Singh 2014-Vakrangee-Bharatpur RARODA , KHAN KHEDA  BAYANA ,BHARATPUR undefined  9828835905  106  Active  22-12-2014    .25  0.00 
617 1221 Shailender Kumar Saini 2014-Vakrangee-Bharatpur Nai Sadak Deeg    05641220230  55  Active  23-12-2014    50.02  0.00 
618 1232 Ashish Kumar 2014-Vakrangee-Bharatpur VPO-Gurdha Nadi,Block-Bayana Distt.-Bharatpur   8290557872  Active  26-12-2014    .6  0.00 
619 1238 Ram Babu 2014-Vakrangee-Bharatpur Near Chotala Ki Shop  Subhash Nagar Bharatpur   9680834848  Active  29-12-2014    .89  0.00 
620 1239 Hem Kumar 2014-Vakrangee-Bharatpur Bhuda Gate Deeg    05641220016  Active  29-12-2014    -.57  0.00 
621 1240 Gulshan Sharma 2014-Vakrangee-Bharatpur Rajiv Gandhi Seva Kendra Village Post Bachhmadi(Noh)Bharatpur    7611851998  Active  29-12-2014    76.3  0.00 
622 1242 Suneel Kumar 2014-Vakrangee-Bharatpur INFRONT OF SBBJ BANK, ARYA SAMAJ ROAD  BAYANA, BHARATPUR undefined  8432663479  Active  07-01-2015    -.04  0.00 
623 1243 Subran Singh 2014-Vakrangee-Bharatpur JANOOTHAR, TEHSIL - DEEG  BHARATPUR   9829547617  Active  07-01-2015    .41  0.00 
624 1247 Navdeep Singh 2014-Vakrangee-Bharatpur RAJIV GANDHI KENDRA KHER,BAYANA BHARATPUR(RAJASTHAN)   9694716874  Active  07-01-2015    .08  0.00 
625 1248 Raju Lal 2014-Vakrangee-Bharatpur Ghor Mahua Sawer    7891035727  Active  07-01-2015    240.63  0.00 
626 1262 Manish Chhabra 2014-Vakrangee-Bharatpur SHIV NAGAR, BEHING SINGHAL OIL MILL  BHARATPUR   8854878487  265  Active  10-01-2015    .74  0.00 
627 1264 Akhalesh Kumar 2014-Vakrangee-Bharatpur GARG CYBER ZONE, ATALBAND  BHARATPUR   9549973808  Active  10-01-2015    .09  0.00 
628 1268 Mohit Kumar 2014-Vakrangee-Bharatpur Near Pashu Hosptal, Kachahari Road  Bharatpur   9461868469  -460  Active  12-01-2015    .87  0.00 
629 1280 Girish Kumar 2014-Vakrangee-Bharatpur INFRONT OF SAMUDAYAK BHAWAN, RIICO ROAD  BHARATPUR   8952043136  Active  16-01-2015    .07  0.00 
630 1289 Dharmender Singh 2014-Vakrangee-Bharatpur VPO-Pali,Block-Weir Distt.-Bharatpur   9928134310  Active  21-01-2015    .7  0.00 
631 1290 Sakir Husain 2014-Vakrangee-Bharatpur Ladamka,Nagar Bharatpur   9772603960  Active  21-01-2015    103.04  0.00 
632 1291 Ganga Singh Yadav 2014-Vakrangee-Bharatpur VPO-Dhilawati,Block-Kaman Distt.-Bharatpur   7568257478  Active  21-01-2015    .53  0.00 
633 1292 Ram Gopal 2014-Vakrangee-Bharatpur INFRONT OF MSJ COLLAGE, BHARATPUR    9782290010  Active  21-01-2015    12.63  0.00 
634 1295 Mohini Dubey 2014-Vakrangee-Bharatpur Behind Kendriya Bus Stand, Bharatpur    8058276502  Active  22-01-2015    .06  0.00 
635 1298 Sachin Khandelwal 2014-Vakrangee-Bharatpur Deeg Road Kumher    9024221353  Active  22-01-2015    78.2  0.00 
636 1299 Lokesh Singh 2014-Vakrangee-Bharatpur Village Toda Post Hingota Deeg Bharatpur     8441097557  750  Active  22-01-2015    1510.93  0.00 
637 1300 Nagendra Singh 2014-Vakrangee-Bharatpur Village Jatoli Thoon Deeg Bharatpur    8239320003  Active  22-01-2015    .22  0.00 
638 1301 Akhalesh Kumar 2014-Vakrangee-Bharatpur Near Lal Darbaja Bayana Bharatpur    9672575195  Active  22-01-2015    -5.08  0.00 
639 1302 Manoj Kumar 2014-Vakrangee-Bharatpur Ward-08,Vijay Nagar Colony Bharatpur   9785050703  Active  22-01-2015    .08  0.00 
640 1303 Ramendra Singh 2014-Vakrangee-Bharatpur NEAR COLLECTRATE CAMPUS, BHARATPUR    8058468405  41  Active  22-01-2015    .94  0.00 
641 1304 Ranjeet Singh 2014-Vakrangee-Bharatpur IT KENDRA, HATHAINI  BLOCK- SEWAR, BHARATPUR undefined  9887962044  Active  22-01-2015    116.67  0.00 
642 1305 Rameshwar 2014-Vakrangee-Bharatpur IT KENDRA, GHUSHYARI  BLOCK- SEWAR, BHARATPUR undefined  8290556585  11  Active  22-01-2015    152.16  0.00 
643 1306 Gaurav Kumar 2014-Vakrangee-Bharatpur Anah Gate Pather Ki Taal Bharatpur    9887126355  Active  23-01-2015    .92  0.00 
644 1318 Govind 2014-Vakrangee-Bharatpur SHERGADH,BAYANA BHARATPUR   9413312658  Active  30-01-2015    .11  0.00 
645 1326 Niranjan Lal Gauttam 2014-Vakrangee-Bharatpur 31,Kalyan Mauhlla Kaman,Bharatpur undefined  9828025135  404  Active  03-02-2015    3.87  0.00 
646 1327 Ramesh Singh 2014-Vakrangee-Bharatpur VIL-KHANSWARA POST -PAPRERA TEH-KUMHER DIST-BHARATPUR    9636191024  294  Active  03-02-2015    2246.65  0.00 
647 1328 Dinesh Kumar 2014-Vakrangee-Bharatpur Dinesh Emitra,Infront Of MSJ Collage Bharatpur,Bharatpur undefined  9649103299  Active  03-02-2015    12.85  0.00 
648 1330 Prem Singh 2014-Vakrangee-Bharatpur IT KENDRA, JHAROLI  BLOCK - SEWAR, BHARATPUR undefined  8952013367  Active  03-02-2015    .27  0.00 
649 1336 Mubarik 2014-Vakrangee-Bharatpur VPO Bhonri The. Pahari Bharatpur    9587773344  Active  03-02-2015    104.77  0.00 
650 1337 Rashid 2014-Vakrangee-Bharatpur Village Nandera Teh. Kaman Bharatpur    8094509630  Active  03-02-2015    -1347.45  0.00 
651 1362 Hari Das 2014-Vakrangee-Bharatpur BEHIND PHOOL SINGH TANT HOUSE, HEERADAS  BHARATPUR   9887540721  46  Active  05-02-2015    82.99  0.00 
652 1363 Ajay Singh 2014-Vakrangee-Bharatpur IT KENDRA, MOROLI KALAN  TEH. & DISTRICT - BHARATPUR   9694235107  Active  05-02-2015    -1436.99  0.00 
653 1364 Prashan Kumar 2014-Vakrangee-Bharatpur IT KENDRA, BILOTHI  TEHSIL & DISTRICT - BHARATPUR   8696620636  Active  05-02-2015    -31.07  0.00 
654 1366 Neeraj Kumar Sharma 2014-Vakrangee-Bharatpur Kaman Bypass Road Neem Ghata Mohalla Deeg    9414695025  Active  06-02-2015    .72  0.00 
655 1367 Kapil Khandelwal 2014-Vakrangee-Bharatpur SHRI RADHE COMMUNICATION, NEW MANDI  BHARATPUR   8890525962  Active  06-02-2015    .78  0.00 
656 1368 Anand Kumar 2014-Vakrangee-Bharatpur SHASHTRI SHALA ROAD, NAGAR  BHARATPUR   Active  06-02-2015    366.14  0.00 
657 1369 Rajendra Singh 2014-Vakrangee-Bharatpur AZADPURA, CHAK DHARSONI  WEIR, BHARATPUR undefined  9694508308  Active  06-02-2015    93.67  0.00 
658 1370 Surjeet Singh 2014-Vakrangee-Bharatpur NEWADA, WEIR  BHARATPUR   9928002775  Active  06-02-2015    .23  0.00 
659 1371 Braj Gopal 2014-Vakrangee-Bharatpur ALIPUR, BHUSAWAR BHARATPUR   8290853081  Active  06-02-2015    .02  0.00 
660 1372 Rakesh Kumar 2014-Vakrangee-Bharatpur RUNDH IKRAN,SEWAR  BHARATPUR   8432670342  Active  06-02-2015    .47  0.00 
661 1373 Harish Kumar 2014-Vakrangee-Bharatpur V & P - JAGHINA, BHARATPUR    9509847007  Active  06-02-2015    .7  0.00 
662 1374 Vishambhar Singh 2014-Vakrangee-Bharatpur Tyohari,Weir Bharatpur   9414388760  Active  06-02-2015    .86  0.00 
663 1380 Ramakant Sharma 2014-Vakrangee-Bharatpur Sirrond,Rupbas Bharatpur   9982679225  Active  11-02-2015    .81  0.00 
664 1382 Rahul Saini 2014-Vakrangee-Bharatpur VPO-Jhanjhar,Block-Nagar Distt.-Bharatpur   8875023726  Active  12-02-2015    .13  0.00 
665 1388 Lalit Kumar 2014-Vakrangee-Bharatpur NEAR SARAS CHAURAHA, VIJAY NAGAR  BHARATPUR   8058845059  104  Active  18-02-2015    74.69  0.00 
666 1400 Dharmendra Kumar 2014-Vakrangee-Bharatpur VPO Pahari Teh. Pahari Bharatpur    9694816516  201  Active  19-02-2015    458.28  0.00 
667 1401 Gajendra Singh Chandel 2014-Vakrangee-Bharatpur अटल सेवा केंद्र ग्राम गुहाना तहसील डीग जिला भरतपुर    9694826177  Active  19-02-2015    37.39  0.00 
668 1402 Rahul Dev 2014-Vakrangee-Bharatpur WARD NO. 03, PAHARI  BHARATPUR   950953507  Active  19-02-2015    -103.35  0.00 
669 1404 Ram Kishan 2014-Vakrangee-Bharatpur V&P- JATOLI RATHBHAN, BLOCK- SEWAR  BHARATPUR   8432422135  10  Active  19-02-2015    171.78  0.00 
670 1409 Vikas Kumar Khandelwal 2014-Vakrangee-Bharatpur Rajiv Gandhi Seva Kendra Panhori    8058926340  20  Active  19-02-2015    134.97  0.00 
671 1410 Umesh Chand 2014-Vakrangee-Bharatpur V&P PAR, BLOCK- SEWAR  BHARATPUR   9887750088  Active  19-02-2015    .87  0.00 
672 1411 Dhanpal Singh 2014-Vakrangee-Bharatpur V&P- KATHAUL, PAHARI  BHARATPUR   9680428449  Active  19-02-2015    .53  0.00 
673 1412 Mohammad Rafeek 2014-Vakrangee-Bharatpur 201, TALAB KE PASS  KANCHANNER, PAHARI  BHARATPUR  9660560986  Active  20-02-2015    1534  0.00 
674 1448 Mahendra Singh 2014-Vakrangee-Bharatpur VPO-HATEEJAR TEH WEIR DIST BHARATPUR    9414654341  Active  11-03-2015    .44  0.00 
675 1462 Manoj Kumar 2014-Vakrangee-Bharatpur Pingora, Nadbai  Bharatpur   9166679417  Active  17-03-2015    85.16  0.00 
676 1517 CSC Sinsini 2014-Vakrangee-Bharatpur Village - Sinsini Block - Deeg,GP -Sinsini Tehsil - Deeg  9024261121  Active  26-03-2015    .2  0.00 
677 1518 CSC Bahaj 2014-Vakrangee-Bharatpur Village - Bahaj block - Deeg,GP-Bahaj Tehsil - Deeg  9783105695  1507  Active  26-03-2015    1392.9  0.00 
678 1519 CSC Hantra 2014-Vakrangee-Bharatpur Village - Hantra Block - Nadbai, GP -Hantra Tehsil - Nadbai  9887241930  Active  26-03-2015    .34  0.00 
679 1520 CSC Rudawal 2014-Vakrangee-Bharatpur Village - Rudawal Block - Rupbas,GP -Rudawal Tehsil - Rupbas  05645274384  Active  26-03-2015    126.79  0.00 
680 1522 CSC Chiksana 2014-Vakrangee-Bharatpur Village - Chiksana Block - Sewar,GP -Chiksana Tehsil -Bharatpur  9828294579  Active  26-03-2015    -86.63  0.00 
681 1524 CSC Kamalpura 2014-Vakrangee-Bharatpur Village - Kamalpura Block - Weir,GP -Kamalpura Tehsil - Weir  9785203822  Active  26-03-2015    302.03  0.00 
682 1525 CSC Moloni 2014-Vakrangee-Bharatpur Village - Moloni Block - Weir,GP -Moloni Tehsil - Weir  7568357181  Active  26-03-2015    .39  0.00 
683 1526 CSC Bajhera Kalan 2014-Vakrangee-Bharatpur Village - Bajhera Kalan Block - Weir,GP- Bjera Kalan Tehsil - Bharatpur  9460324222  Active  26-03-2015    8.92  0.00 
684 1527 CSC Deewali 2014-Vakrangee-Bharatpur Village - Deewali Block -Weir,GP -Divli Tehsil - Weir  7742053693  Active  26-03-2015    212.77  0.00 
685 1529 CSC Rupbas 2014-Vakrangee-Bharatpur Village - Rupbas Block - Rupbas,GP -Rupbas Tehsil - Rupbas  05645-273027  Active  26-03-2015    .4  0.00 
686 1530 CSC Chhokarwara Kalan 2014-Vakrangee-Bharatpur Village - Chhokarwara Kalan Block - Weir Bharatpur  9785358031  Active  26-03-2015    .79  0.00 
687 1531 CSC Mai 2014-Vakrangee-Bharatpur Village - Mai  Block - Nadbai Bharatpur  9783015108  31  Active  26-03-2015    1.31  0.00 
688 1532 CSC barauli Chhar 2014-Vakrangee-Bharatpur Village-Barauli Chhar Block-Nadbai Bharatpur  9660985921  Active  26-03-2015    .64  0.00 
689 1534 CSC pahari 2014-Vakrangee-Bharatpur Village-Pahari Block-Nagar Bharatpur  8890198658  Active  26-03-2015    .81  0.00 
690 1536 CSC ludhabai 2014-Vakrangee-Bharatpur Village-Ludhabai Block-Sewar Bharatpur  9166767525  Active  26-03-2015    6.69  0.00 
691 1537 CSC Govindpura 2014-Vakrangee-Bharatpur Village-Govindpura Block-Weir Bharatpur  9414903955  Active  26-03-2015    1037.83  0.00 
692 1539 CSC Kanawar 2014-Vakrangee-Bharatpur Village - Kanawar Block - Bayana Bharatpur  9828300711  Active  26-03-2015    .48  0.00 
693 1540 CSC Janoothar 2014-Vakrangee-Bharatpur Village-Janoothar Block-Deeg Bharatpur  7597797506  Active  26-03-2015    -1553.21  0.00 
694 1545 CSC Seedpur 2014-Vakrangee-Bharatpur Village - Seedpur Block - Bayana Bharatpur  9799081802  Active  26-03-2015    .58  0.00 
695 1547 CSC Sikrori 2014-Vakrangee-Bharatpur Village - Sikrori Block - Kumher Bharatpur  9414327298  Active  26-03-2015    .54  0.00 
696 1550 CSC Gulpara 2014-Vakrangee-Bharatpur Village - Gulpara Block - Nagar,GP -Gulpada Tehsil - Nagar  9649498388  Active  26-03-2015    .02  0.00 
697 1551 Csc Khera Thakur 2014-Vakrangee-Bharatpur Village-Khera Thakur Block-Rupbas District-Bharatpur   8824365595  103  Active  26-03-2015    195.92  0.00 
698 1552 Csc Sarsaina 2014-Vakrangee-Bharatpur Village-Sarsaina Block-Weir District-Bharatpur  9636305014  Active  26-03-2015    .84  0.00 
699 1553 Csc Bhatpura 2014-Vakrangee-Bharatpur Village-Bhatpura Block-Nagar District-Bharatpur  9672172461  110  Active  26-03-2015    150.36  0.00 
700 1555 Csc Seekri Chak No 1 2014-Vakrangee-Bharatpur Village-Seekri Chak No.1 Block-Nagar District-Bharatpur  9950750001  Active  26-03-2015    66.07  0.00 
701 1556 CSC Palka 2014-Vakrangee-Bharatpur Village - Palka Block - Nagar,GP -Palka Tehsil - Nagar  9828229302  Active  26-03-2015    263.01  0.00 
702 1558 CSC Bedham 2014-Vakrangee-Bharatpur Village - Dedham Block - Deeg,GP - Baidam Tehsil - Deeg  9887050988  Active  26-03-2015    .87  0.00 
703 1560 CSC Samogar 2014-Vakrangee-Bharatpur ATAL SEVA KENDRA SAMOGAR,  TEH-BAYANA, DISTRICT- BHARATPUR   9414485885  105  Active  26-03-2015    121.35  0.00 
704 1561 CSC Ubar 2014-Vakrangee-Bharatpur Village- Ubar Block- Kumher District- Bharatpur  9782276183   Active  26-03-2015    .82  0.00 
705 1563 CSC Seekri Chak No 2 2014-Vakrangee-Bharatpur Village- Seekri Chak No 2 Block- Nagar District- Bharatpur  9413994113  Active  26-03-2015    .31  0.00 
706 1564 CSC Berroo 2014-Vakrangee-Bharatpur Village- Berroo Block- Nagar District- Bharatpur  9983740637  Active  26-03-2015    -771.68  0.00 
707 1565 CSC Shahna 2014-Vakrangee-Bharatpur Village - Shahna Block - Rupbas,GP -Sahna Tehsil - Rupbas  8058592215  Active  26-03-2015    .83  0.00 
708 1571 CSC Dehgawan 2014-Vakrangee-Bharatpur Village- Dehgawan  Block- Bayana  District- Bharatpur  9887919379  Active  26-03-2015    292.54  0.00 
709 1572 CSC Paramdara 2014-Vakrangee-Bharatpur Village- Paramadara Block- Deeg District- Bharatpur  9413227228  Active  26-03-2015    .37  0.00 
710 1575 CSC Baroli Chauth 2014-Vakrangee-Bharatpur Village- Baroli Chauth  Block- Deeg  District- Bharatpur  9950866507  1433  Active  26-03-2015    712.48  0.00 
711 1577 CSC Satwas 2014-Vakrangee-Bharatpur Village- Satwas  Block- Kaman  District- Bharatpur   9982321410  Active  26-03-2015    108.95  0.00 
712 1578 CSC Moonsepur 2014-Vakrangee-Bharatpur Village- Moonsepur  Block- Kaman  District- Bharatpur   9001892350  17  Active  26-03-2015    10.53  0.00 
713 1579 CSC Jurhara 2014-Vakrangee-Bharatpur Village- Jurhara  Block- Kaman  District- Bharatpur  9413878652  Active  26-03-2015    -499.86  0.00 
714 1581 CSC Kathaul 2014-Vakrangee-Bharatpur Village- Kathaul  Block- Kaman  District- Bharatpur   9509535906  92  Active  26-03-2015    2741.61  0.00 
715 1582 CSC Birharu 2014-Vakrangee-Bharatpur Village- Birharu  Block- Kumher  District- Bharatpur  9785037811  301  Active  26-03-2015    5.51  0.00 
716 1584 CSC Lakhan 2014-Vakrangee-Bharatpur Village- Lakhan  Block- Kumher  District- Bharatpur  9602406517  20  Active  26-03-2015    51.37  0.00 
717 1585 CSC Borai 2014-Vakrangee-Bharatpur Village- Borai  Block- Kumher  District- Bharatpur   9694199137  Active  26-03-2015    .32  0.00 
718 1586 CSC Kurka 2014-Vakrangee-Bharatpur Village- Kurka  Block- Rupbas  District- Bharatpur  9783284432  Active  26-03-2015    25.74  0.00 
719 1587 CSC Malah 2014-Vakrangee-Bharatpur Village- Malah  Block- Sewar  District- Bharatpur   9001668134  Active  26-03-2015    .42  0.00 
720 1591 CSC KORER 2014-Vakrangee-Bharatpur Village KORER  Block DEEG  District BHARATPUR   9783156574  443  Active  26-03-2015    75.88  0.00 
721 1596 CSC Shakkarpur 2014-Vakrangee-Bharatpur Village Shakkarpur  Block RUPBAS  District BHARATPUR   9462355422  Active  26-03-2015    .54  0.00 
722 1600 CSC Siras 2014-Vakrangee-Bharatpur Village Siras   Block WEIR  District BHARATPUR   9460877014  Active  26-03-2015    .63  0.00 
723 1601 CSC Bhaiseena 2014-Vakrangee-Bharatpur Village Bhaiseena  Block WEIR  District BHARATPUR   9214944095  Active  26-03-2015    .36  0.00 
724 1602 CSC Samraya 2014-Vakrangee-Bharatpur Village Samraya  Block WEIR  District BHARATPUR   9667808828  Active  26-03-2015    .11  0.00 
725 1604 CSC HATAURI 2014-Vakrangee-Bharatpur Village HATAURI   Block WEIR   District BHARATPUR   000000000000  Active  26-03-2015    60.72  0.00 
726 1606 CSC Barah Mafi 2014-Vakrangee-Bharatpur Village - Barah Mafi Block - Rupbas GP - Barah Mafi  9680805312  Active  26-03-2015    .58  0.00 
727 1609 CSC Sahsan 2014-Vakrangee-Bharatpur Village Sahsan  Block KAMAN  District BHARATPUR   96101000045  Active  26-03-2015    -1219.6  0.00 
728 1610 CSC Pichoomar 2014-Vakrangee-Bharatpur Village Pichoomar  Block KUMHER  District BHARATPUR   7737100184  118  Active  26-03-2015    365.05  0.00 
729 1611 CSC Peepal Khera 2014-Vakrangee-Bharatpur Village Peepal Khera  Block NAGAR  District BHARATPUR   9772404014  129  Active  26-03-2015    2015.92  0.00 
730 1614 CSC Aghapur 2014-Vakrangee-Bharatpur Village Aghapur  Block SEWAR  District BHARATPUR   9549249946  Active  26-03-2015    688.99  0.00 
731 1615 CSC Moondota 2014-Vakrangee-Bharatpur Village MOONDOTA   Block SEWAR   District BHARATPUR   9887482598  Active  26-03-2015    -339.07  0.00 
732 1616 CSC Jahanpur 2014-Vakrangee-Bharatpur Village- Jahanpur Block- Weir  District- Bharatpur   9694265999  Active  26-03-2015    -1428.36  0.00 
733 1618 CSC Samai 2014-Vakrangee-Bharatpur Village Samai  Block DEEG  District BHARATPUR   9509535226  Active  26-03-2015    9.18  0.00 
734 1620 CSC Pai 2014-Vakrangee-Bharatpur Village Pai  Block KAMAN  District BHARATPUR   9413309008  Active  26-03-2015    420.81  0.00 
735 1622 CSC Gopalgarh 2014-Vakrangee-Bharatpur Village Gopalgarh  Block NAGAR  District BHARATPUR   9983757532  Active  26-03-2015    .87  0.00 
736 1624 CSC Dahina Gaon 2014-Vakrangee-Bharatpur Village Dahina Gaon  Block RUPBAS  District BHARATPUR   9983650149  Active  26-03-2015    .88  0.00 
737 1627 CSC Bilang 2014-Vakrangee-Bharatpur Village- Bilang Block- Kaman  District- Bharatpur  8504075123  Active  26-03-2015    63.83  0.00 
738 1628 CSC Koomha (Khumer) 2014-Vakrangee-Bharatpur Village- Koomha  Block- Kumher  District- Bharatpur  9887438336  Active  26-03-2015    .99  0.00 
739 1631 CSC Taraudar 2014-Vakrangee-Bharatpur Village- Taraudar  Block- Nagar District- Bharatpur  9783527827  Active  26-03-2015    .41  0.00 
740 1632 CSC Tuhiya 2014-Vakrangee-Bharatpur Village- Tuhiya  Block- Sewar  District- Bharatpur  9887934359  Active  26-03-2015    16.39  0.00 
741 1633 CSC Naroli 2014-Vakrangee-Bharatpur Village- Naroli Block- Bayana  District- Bharatpur  9799726525  Active  26-03-2015    .76  0.00 
742 1635 CSC Khanuan 2014-Vakrangee-Bharatpur Village - khanuan Block - Rupbas  Bharatpur  8003617737  Active  26-03-2015    .4  0.00 
743 1636 CSC Atari 2014-Vakrangee-Bharatpur Village- Atari Block- Nadbai District- Bharatpur  9414377002  200  Active  26-03-2015    521.81  0.00 
744 1637 CSC Iklahra 2014-Vakrangee-Bharatpur Village- Iklahra  Block- Deeg District- Bharatpur  9414711355  10  Active  26-03-2015    142.35  0.00 
745 1638 CSC Karhi 2014-Vakrangee-Bharatpur Village- Karhi Block- Nadbai District- Bharatpur  9950324526  11  Active  26-03-2015    51.31  0.00 
746 1644 CSC Chhichharwari 2014-Vakrangee-Bharatpur Village- Chhichharwari Block- Kaman  District- Bharatpur  9828523499  Active  26-03-2015    .77  0.00 
747 1647 CSC Nyotha 2014-Vakrangee-Bharatpur Village- Nyotha  Block- Nadbai District- Bharatpur  05643275505  Active  26-03-2015    40.73  0.00 
748 1649 CSC Kheri Devisingh 2014-Vakrangee-Bharatpur Village- Kheri Devisingh  Block- Nadbai  District- Bharatpur  9887395295  Active  26-03-2015    5.78  0.00 
749 1654 CSC Undra 2014-Vakrangee-Bharatpur Village- Undra  Block- Sewar  District- Bharatpur  7742257001  Active  26-03-2015    60.26  0.00 
750 1656 CSC Lakhanpur (Weir) 2014-Vakrangee-Bharatpur Village- Lakhanpur Block- Weir  District- Bharatpur  9782635066  Active  26-03-2015    .55  0.00 
751 1657 CSC Moodiya Laleeta 2014-Vakrangee-Bharatpur Village- Moodiya Laleeta Block- Weir  District- Bharatpur  9414758409  Active  26-03-2015    0.00 
752 1660 CSC Jatmasi 2014-Vakrangee-Bharatpur Village JATMASI  Block RUPBAS  District BHARATPUR   8058932026  Active  26-03-2015    .83  0.00 
753 1661 CSC Ajan 2014-Vakrangee-Bharatpur Village Ajan  Block KUMHER  District BHARATPUR   9887687712  711  Active  26-03-2015    .02  0.00 
754 1663 CSC Bhatawali 2014-Vakrangee-Bharatpur Village BHATAWALI  Block KUMHER  District BHARATPUR   9530446606  Active  26-03-2015    .89  0.00 
755 1666 CSC Barauli Dhau 2014-Vakrangee-Bharatpur Village- Barauli Dhau Block- Kaman District- Bharatpur  9636033448  Active  26-03-2015    66.55  0.00 
756 1670 CSC Badri 2014-Vakrangee-Bharatpur Village BADRI  Block DEEG  District BHARATPUR   9875298827  Active  26-03-2015    33.56  0.00 
757 1676 CSC Noharda 2014-Vakrangee-Bharatpur Village NOHARDA  Block RUPBAS  District BHARATPUR   9413510642  Active  26-03-2015    7.85  0.00 
758 1677 CSC PHULWARA 2014-Vakrangee-Bharatpur Village PHULWARA  Block SEWAR  District BHARATPUR   05644220663  1287  Active  26-03-2015    207.99  0.00 
759 1679 CSC BRAHMAWAD 2014-Vakrangee-Bharatpur Village BRAHMAWAD  Block BAYANA  District BHARATPUR   05648232035  234  Active  26-03-2015    521.17  0.00 
760 1681 CSC Sooti 2014-Vakrangee-Bharatpur Village SOOTI  Block SEWAR  District BHARATPUR   8094749430  Active  26-03-2015    .59  0.00 
761 1685 CSC Helak 2014-Vakrangee-Bharatpur Village Helak  Block KUMHER  District BHARATPUR   9414889065  Active  26-03-2015    .52  0.00 
762 1686 CSC RANDHEERGARH 2014-Vakrangee-Bharatpur Village RANDHEERGARH  Block WEIR  District BHARATPUR   9828356625  Active  26-03-2015    .86  0.00 
763 1688 CSC Khan Surjapura 2014-Vakrangee-Bharatpur village khan surjapura block rupbas District bharatpur  9929935890  Active  26-03-2015    .63  0.00 
764 1689 CSC Ghatri 2014-Vakrangee-Bharatpur Village Ghatri Block Weir District Bharatpur  000000000000  Active  26-03-2015    .04  0.00 
765 1690 CSC Vaulkhera 2014-Vakrangee-Bharatpur Village Vaulkhera  Block KAMAN  District BHARATPUR   9928280228  Active  26-03-2015    .27  0.00 
766 1691 CSC Daurda 2014-Vakrangee-Bharatpur Village Daurda  Block RUPBAS  District BHARATPUR   7300130706  Active  26-03-2015    85.05  0.00 
767 1693 CSC Sundrawali 2014-Vakrangee-Bharatpur Village- Sundrawali Block- Nagar  District- Bharatpur  9261767670  Active  26-03-2015    -860.04  0.00 
768 1696 CSC Pahua 2014-Vakrangee-Bharatpur Village- Pahua  Block- Kumher  District- Bharatpur  9784058944  Active  26-03-2015    93.09  0.00 
769 1697 CSC Kakrala 2014-Vakrangee-Bharatpur Village- Kakrala Block- Nagar District- Bharatpur  9828672146  Active  26-03-2015    .6  0.00 
770 1698 CSC Dawak 2014-Vakrangee-Bharatpur Village- Dawak Block- Nagar District- Bharatpur  9610562668  Active  26-03-2015    18.29  0.00 
771 1700 CSC Andhiyari 2014-Vakrangee-Bharatpur Village- Andhiyari Block- Rupbas District- Bharatpur  9950324410  Active  26-03-2015    .54  0.00 
772 1705 CSC Santrook 2014-Vakrangee-Bharatpur Village- Santrook Block- Kumher District- Bharatpur  9982774208  733  Active  26-03-2015    196.76  0.00 
773 1706 CSC Therawar 2014-Vakrangee-Bharatpur Village- Therawar Block- Kumher District- Bharatpur  9772922025  Active  26-03-2015    8.91  0.00 
774 1710 CSC Nabhera 2014-Vakrangee-Bharatpur Village- Nabhera Block- Rupbas District- Bharatpur  9694147825  Active  26-03-2015    -.67  0.00 
775 1711 CSC Padalwas 2014-Vakrangee-Bharatpur Village- Padalwas Block- Nagar District- Bharatpur  9982320886  Active  26-03-2015    -1212.63  0.00 
776 1723 CSC Kasot_WRS 2014-Vakrangee-Bharatpur Village- Kasot Block- Deeg District- Bharatpur  9950306770  Active  26-03-2015    -16.75  0.00 
777 1726 CSC Khangri_WRS 2014-Vakrangee-Bharatpur Village- Khangri Block- Nadbai District- Bharatpur  9784436739  Active  26-03-2015    173.82  0.00 
778 1729 CSC Daulatgarh 2014-Vakrangee-Bharatpur Village- Daulatgarh Block- Rupbas District- Bharatpur  8058253021  Active  26-03-2015    .81  0.00 
779 1731 CSC Uchchain 2014-Vakrangee-Bharatpur Village - Uchchain Block - Rupbas Dist. - Bharatpur  9928892871  Active  26-03-2015    137.85  0.00 
780 1732 CSC Paharpur 2014-Vakrangee-Bharatpur Village - Paharpur Block - Rupbas Dist. - Bharatpur  9610374499  Active  26-03-2015    2058.66  0.00 
781 1733 CSC Rundh Rupbas 2014-Vakrangee-Bharatpur Village - Rundh Rupbas Block - Rupbas Dist. - Bharatpur  0000000  Active  26-03-2015    54.63  0.00 
782 1734 CSC Rupbas_WRS 2014-Vakrangee-Bharatpur Village - Rupbas Block - Rupbas Dist. - Bharatpur  9828863302  Active  26-03-2015    267.51  0.00 
783 1735 CSC Rudawal 2014-Vakrangee-Bharatpur Vilage - Rudawal Block - Rupbas Dist. - Bharatpur  9610023242  Active  26-03-2015    .87  0.00 
784 1737 CSC NAWLI 2014-Vakrangee-Bharatpur Village-NAWLI BLOCK -BAYANA DIS- BHARATPUR  9001558722  33  Active  26-03-2015    .76  0.00 
785 1738 CSC KUCHAWATI 2014-Vakrangee-Bharatpur Village-KUCHAWATI BLOCK -DEEG DIS- BHARATPUR  9875144247  Active  26-03-2015    169.45  0.00 
786 1740 CSC BAMANWARI 2014-Vakrangee-Bharatpur Village-BAMANWARI BLOCK -KAMAN DIS- BHARATPUR  9785707577  Active  26-03-2015    .8  0.00 
787 1741 CSC GHATMEEKA 2014-Vakrangee-Bharatpur Village-GHATMEEKA BLOCK -KAMAN DIS- BHARATPUR  8094797171  Active  26-03-2015    .06  0.00 
788 1742 CSC PIPRAU 2014-Vakrangee-Bharatpur Village-PIPRAU BLOCK -NADBAI DIS- BHARATPUR  9166662311  Active  26-03-2015    27.07  0.00 
789 1743 CSC LAKHANPUR 2014-Vakrangee-Bharatpur Village-LAKHANPUR BLOCK -NADBAI DIS- BHARATPUR  9414214046  Active  26-03-2015    .12  0.00 
790 1745 CSC IBRAHIMPUR 2014-Vakrangee-Bharatpur Village-IBRAHIMPUR BLOCK -RUPBAS DIS- BHARATPUR  9772543150  Active  26-03-2015    15.17  0.00 
791 1746 CSC BANSI KUURD 2014-Vakrangee-Bharatpur Village-BANSI KUURD BLOCK -SEWAR DIS- BHARATPUR  9875008565  Active  26-03-2015    63.48  0.00 
792 1747 CSC PATHENA 2014-Vakrangee-Bharatpur Village-PATHENA BLOCK -WEIR DIS- BHARATPUR  9461247513  Active  26-03-2015    .73  0.00 
793 1749 JSS Infotech emitra center 2014-Vakrangee-Bharatpur Near SRS College  Block Kumher  Bharatpur  9950192400  Active  26-03-2015    .18  0.00 
794 1750 Kuldeep Emitra Center 2014-Vakrangee-Bharatpur Infront of Zila Parishad Shop No. 1 Krishana Nagar Bharatpur  9887149141  Active  26-03-2015    52.73  0.00 
795 1751 Tamanna Emitra Center 2014-Vakrangee-Bharatpur Shop No. 15 Collectrate Campus Near S.B.B.J Collectrate Branch Bharatpur  000000000  Active  26-03-2015    5.02  0.00 
796 1752 Anuj eMitra 2014-Vakrangee-Bharatpur 82, Ekta Vihar Colony Sunkh Road Bharatpur  000000000  Active  26-03-2015    .92  0.00 
797 1754 City eMitra Center 2014-Vakrangee-Bharatpur Near Siki Wale Hanuman Mandir Mandi Alal Bandh  Bharatpur  05644220341  Active  26-03-2015    .59  0.00 
798 1755 Rakesh eMitra Center 2014-Vakrangee-Bharatpur Shop No-1 Near Panchayat Samiti Blcok-Nadbai Bharatpur  05643275050  Active  26-03-2015    .1  0.00 
799 1756 Anil Emitra 2014-Vakrangee-Bharatpur Jain Book Depot Block Bayana District- Bharatpur   05648225200  166  Active  26-03-2015    248.88  0.00 
800 1757 Gaurav eMitra 2014-Vakrangee-Bharatpur Koli Pada Caabkari Mohalla NAi Sadak Deeg Bharatpur  9414715893  Active  26-03-2015    106.31  0.00 
801 1758 Sony eMitra Center 2014-Vakrangee-Bharatpur Near Jageshwar Mandir Kumher Bharatpur   9024728351  Active  26-03-2015    33.14  0.00 
802 1759 Balaji emitra Center Nadbai 2014-Vakrangee-Bharatpur Balaji Printing Press  Nagar Road Nadbai  9785578785  Active  26-03-2015    11.38  0.00 
803 1760 Shri Radhey Mohan eMitra Center 2014-Vakrangee-Bharatpur Natani Mohalla Deeg Bharatpur  9887905192  Active  26-03-2015    .49  0.00 
804 1761 Dakshita eMitra Center 2014-Vakrangee-Bharatpur Infront of Mohanji Mandir Budh ki Haat Bharatpur  9413916336  Active  26-03-2015    48.84  0.00 
805 1838 Mevaram 2014-Vakrangee-Bharatpur atal Seva kendra kapura, malooka    8290695834  Active  13-04-2015    .5  0.00 
806 1842 Laxmi Narayan Gaur 2014-Vakrangee-Bharatpur Atal Seva Kendra Ghosinga Kaman Bharatpur    9982906461  Active  13-04-2015    -149.87  0.00 
807 1843 Narendra Kumar 2014-Vakrangee-Bharatpur Atal Seva Kendra Vpo Uadki Dalla Nagar Bharatpur    8502921843  Active  13-04-2015    .5  0.00 
808 1880 Chandra Shekhar 2014-Vakrangee-Bharatpur Vill- madapura,rupbas bharatpur   9694325981  Active  16-04-2015    3896.5  0.00 
809 1881 Anil Kumar 2014-Vakrangee-Bharatpur Vill- Fatehpur,Rupbas bharatpur   9460291176  Active  16-04-2015    -327.63  0.00 
810 1882 Ravindra Singh 2014-Vakrangee-Bharatpur Vill- Vinaua,Rupbas Bharatpur   9602931193  Active  16-04-2015    21.27  0.00 
811 1884 Santosh Kumar 2014-Vakrangee-Bharatpur VPO-Akhaigarh the-nadbai dist-bharatpur    9887472471  Active  16-04-2015    269.91  0.00 
812 1885 Ram Sahay 2014-Vakrangee-Bharatpur VPO-Nayabas the-nadbai dist-bharatpur    9785190846  Active  16-04-2015    102.03  0.00 
813 1890 Rajneesh 2014-Vakrangee-Bharatpur Vill-Ajit nagar post-Dharsoni the-weir dist-bharatpur    9828571484  Active  16-04-2015    452.56  0.00 
814 1897 Jitendra Kumar 2014-Vakrangee-Bharatpur Dumriya,Roopbas Bharatpur   9928208514  Active  16-04-2015    .18  0.00 
815 1898 Khajan Singh 2014-Vakrangee-Bharatpur Ghata,Aodal Gaddi Rupbas,Bharatpur undefined  8432303126  Active  16-04-2015    101.92  0.00 
816 1900 Suresh Chand 2014-Vakrangee-Bharatpur VPO Malah Sawer Bharatpur    Active  16-04-2015    2429.98  0.00 
817 1901 Devendra Singh 2014-Vakrangee-Bharatpur VPO-KHATAUTI TEH-NADBAI DIST-BHARATPUR    9785156162  Active  16-04-2015    .79  0.00 
818 1902 Vishnu Kumar 2014-Vakrangee-Bharatpur VPO Chulera Deeg Bharatpur    9549869225  Active  16-04-2015    1055.13  0.00 
819 1903 Devendra Singh 2014-Vakrangee-Bharatpur VPO Pasta Deeg Bharatpur    8058521363  256  Active  16-04-2015    .98  0.00 
820 1904 Kumar Singh 2014-Vakrangee-Bharatpur VPO Khohri Deeg Bharatpur    9587994507  Active  16-04-2015    50.28  0.00 
821 1906 Pradeep Kumar 2014-Vakrangee-Bharatpur Dhaulet Kaman Bharatpur    9610020647  Active  16-04-2015    .61  0.00 
822 1910 Sunil Kumar 2014-Vakrangee-Bharatpur G.P. KHANUA, ROOPBAS BHARATPUR   8441083556  Active  16-04-2015    .29  0.00 
823 1911 Jandail Singh 2014-Vakrangee-Bharatpur G.P. DHANA KHERLI, ROOPBAS  BHARATPUR   9784489724  Active  16-04-2015    0.00 
824 1912 Gopal Singh 2014-Vakrangee-Bharatpur VILL-JAHANPUR POST-MOLONI TEH-WEIR DIST-BHARATPUR    9667902928  Active  16-04-2015    .92  0.00 
825 1913 Harish Chand 2014-Vakrangee-Bharatpur VPO-KARILI TEH-NADBAI DIST-BHARATPUR RAJ    9828354550  Active  16-04-2015    68.91  0.00 
826 1914 Sonu Singh 2014-Vakrangee-Bharatpur VPO-RAYSIS TEH-NADBAI DIST-BHARATPUR RAJ     7891285253  Active  16-04-2015    .46  0.00 
827 1915 Sunil Kumar 2014-Vakrangee-Bharatpur VPO-GANGAROLI TEH-NADBAI DIST-BHARATPUR     9929273597  Active  16-04-2015    -971.35  0.00 
828 1916 Jeetendra Singh 2014-Vakrangee-Bharatpur VPO-ENCHERA TEH-NADBAI DIST-BHARATPUR RAJ.    9636948833  645  Active  16-04-2015    3433.94  0.00 
829 1917 Lalaram Saini 2014-Vakrangee-Bharatpur VPO-AKHAIGARH TEH-NADBAI DIST-BHARATPUR RAJ.321614    8107612481  Active  16-04-2015    .91  0.00 
830 1918 Rambabu 2014-Vakrangee-Bharatpur G.P. SENDHLI, BHUSAWAR  BHARATPUR   9782635464  Active  16-04-2015    125.76  0.00 
831 1922 Kanhiya Lal 2014-Vakrangee-Bharatpur Atal Sewa Kendra Satwari,Pahari Nagar ,Bharatpur undefined  9694217678  15  Active  16-04-2015    494.28  0.00 
832 1923 Shaun Ahmed 2014-Vakrangee-Bharatpur Vill-Dhaulet,Kaman Bharatpur     Active  16-04-2015    0.00 
833 1941 Mahipal Singh 2014-Vakrangee-Bharatpur VPO Shyourawali Deeg Bharatpur    9828659838  Active  17-04-2015    453.33  0.00 
834 1960 Kuldeep Singh 2014-Vakrangee-Bharatpur VPO-ALIPUR TEH-WEIR DIST-BHARATPUR RAJ.    9252535610  Active  20-04-2015    56.16  0.00 
835 1961 Subhash Chand 2014-Vakrangee-Bharatpur VPO-NAROLI TEH-WEIR DIST-BHARATPUR RAJ    7891273172  120  Active  20-04-2015    708.53  0.00 
836 1969 Saikool Hadeesh 2014-Vakrangee-Bharatpur VILL- SUNEHRATEH.-KAMANDIST.-BHARATPUR    9571216300  180  Active  24-04-2015    9278.34  0.00 
837 1970 Sahil 2014-Vakrangee-Bharatpur VILL.-LEVDATEH.-KAMANDIST.-BHARATPUR    8302391952  Active  24-04-2015    745.86  0.00 
838 1974 Sukhveer Singh 2014-Vakrangee-Bharatpur BHANDRA, KAMAN  BHARATPUR   9680687275  Active  24-04-2015    -.31  0.00 
839 1982 Rajeev 2014-Vakrangee-Bharatpur Bodoli Dahar Nagar Bharatpur    9772131500  Active  27-04-2015    .54  0.00 
840 1985 Amajad Khan 2014-Vakrangee-Bharatpur Udki Dalla Nagar Bharatpur    9783421642  Active  27-04-2015    .39  0.00 
841 1987 Preeti Rani 2014-Vakrangee-Bharatpur G.P. SATWAS, KAMAN  BHARATPUR   9571941818  485  Active  27-04-2015    61.07  0.00 
842 1988 Jeetendra Singh 2014-Vakrangee-Bharatpur Atal Sewa Kendra, Kharera, GP- Kharera, Roopwas     9667424562  Active  27-04-2015    3.23  0.00 
843 1989 Satyendra Kumar 2014-Vakrangee-Bharatpur G.P. KHAKHAWALI, NAGAR  BHARATPUR   9785549716  Active  27-04-2015    72.93  0.00 
844 1994 Tirthendra Kumar 2014-Vakrangee-Bharatpur NEAR OF BIHARI JI TEMPLE, MAHAL KHAS ROAD  KILA, BHARATPUR undefined  9414208420  Active  27-04-2015    .13  0.00 
845 1995 Ravi Kant 2014-Vakrangee-Bharatpur Vill Jhitaredi Nagar Bharatpur    8239735599  Active  27-04-2015    .38  0.00 
846 1996 Shailendra Kumar 2014-Vakrangee-Bharatpur Near Panchayat Samati Rupbas    05645273071  Active  27-04-2015    .52  0.00 
847 1997 Jiwaram 2014-Vakrangee-Bharatpur Near Peer Mohalla Kaman    7568394564  Active  27-04-2015    17.51  0.00 
848 2002 Ajam Ali 2014-Vakrangee-Bharatpur MOONSEPUR,KAMAN Bharatpur   9887355386  910  Active  27-04-2015    -.71  0.00 
849 2004 Govind Singh 2014-Vakrangee-Bharatpur KANWARA, KAMAN  BHARATPUR   9875177264  Active  27-04-2015    80.6  0.00 
850 2005 Aneesh 2014-Vakrangee-Bharatpur BHORI, PAHARI  BHARATPUR   9887936012  Active  27-04-2015    .4  0.00 
851 2006 Janish Khan 2014-Vakrangee-Bharatpur GARHAJAN, KAMAN  BHARATPUR   9413157862  Active  27-04-2015    -213.71  0.00 
852 2009 Ramavatar Gurjar 2014-Vakrangee-Bharatpur PALLA, KAMAN  BHARATPUR   9875161441  549  Active  27-04-2015    5095.52  0.00 
853 2010 Tarif Mohhamad 2014-Vakrangee-Bharatpur Ladlaka,Pahari Bharatpur   8875058404  Active  27-04-2015    .89  0.00 
854 2011 Anuj Kumar 2014-Vakrangee-Bharatpur ग्राम पंचायत अऊ तहसील डीग  जिला भरतपुर राजस्थान  9828638957  Active  27-04-2015    42.98  0.00 
855 2060 Ashok Kumar 2014-Vakrangee-Bharatpur Dayana Ka Bass Khohri Nagar Bharatpur    9783351699  22  Active  04-05-2015    464.44  0.00 
856 2063 Asu Khan 2014-Vakrangee-Bharatpur Atal Sewa Kendra,Jurhera Kaman,Bharatpur undefined  9828287548  Active  05-05-2015    109.69  0.00 
857 2064 Pradeep Kumar 2014-Vakrangee-Bharatpur Near Bus Stand,Heera Das Bharatpur   9782824899  50  Active  05-05-2015    627.02  0.00 
858 2065 Jeetendra Kumar 2014-Vakrangee-Bharatpur Alamshah,Nagar Bharatpur   8824310939  76  Active  05-05-2015    .39  0.00 
859 2066 Ghanshyam Sharma 2014-Vakrangee-Bharatpur Jurhera,Kaman Bharatpur   9887458200  12  Active  05-05-2015    5.83  0.00 
860 2067 Jeetendra Singh 2014-Vakrangee-Bharatpur Shahna,Roopwas Bharatpur   7891440920  701  Active  05-05-2015    930.86  0.00 
861 2069 Dharmendra Singh 2014-Vakrangee-Bharatpur Bachhrain,Weir Bharatpur   9636979736  Active  05-05-2015    1919.72  0.00 
862 2074 Suresh Chand 2014-Vakrangee-Bharatpur Near PNB Bank Deeg Bharatpur    9414695077  Active  05-05-2015    60.41  0.00 
863 2076 Deepak Kumar 2014-Vakrangee-Bharatpur INFRONT BIJALI GHAR OFFICE, MAAN SINGH CIRCLE  BHARATPUR   9610085507  Active  05-05-2015    .84  0.00 
864 2080 Sakir Hussain 2014-Vakrangee-Bharatpur VILL.-MOONGASKATEH/BLOCK .-KAMANDIST.-BHARATPUR    9610030300  Active  05-05-2015    .21  0.00 
865 2085 Satish Chand 2014-Vakrangee-Bharatpur NAGAR PALIKA BAYANA,BAYANA BHARATPUR   9460456748  -1  Active  05-05-2015    .64  0.00 
866 2107 Chandra Prakash 2014-Vakrangee-Bharatpur Near Vatnary Hospital Infront Of Collectrate Bharatpur    9875008565  Active  13-05-2015    50.09  0.00 
867 2108 Virendra 2014-Vakrangee-Bharatpur Sirthala,Nagar Bharatpur   8003120878  1050  Active  13-05-2015    141.13  0.00 
868 2109 Shakrulla Khan 2014-Vakrangee-Bharatpur Jalalpur,Nagar Bharatpur   8890841456  15  Active  13-05-2015    327.62  0.00 
869 2110 Abhishek Jain 2014-Vakrangee-Bharatpur Ward No 10,Weir Bharatpur   05643272027  299  Active  13-05-2015    669.85  0.00 
870 2115 Jeetendra Singh 2014-Vakrangee-Bharatpur G.P- SOGAR, KUMHER  BHARATPUR   8385919296  -400  Active  14-05-2015    .56  0.00 
871 2116 Tahir Mohammad 2014-Vakrangee-Bharatpur V&P- LADMAKA, PAHARI  BHARATPUR   9828554381  Active  14-05-2015    68.37  0.00 
872 2117 Akbar Hussain 2014-Vakrangee-Bharatpur G.P. JOTRI PEEPAL, PAHARI  BHARATPUR   8094740181  Active  14-05-2015    -.96  0.00 
873 2119 Lala Ram 2014-Vakrangee-Bharatpur Pahari,Nagar Bharatpur   9828116381  314  Active  14-05-2015    160.23  0.00 
874 2121 Ram Lal Yogi 2014-Vakrangee-Bharatpur Atal Sewa Kendra,Mudiya Nagar,Bharatpur undefined  9784028801  Active  14-05-2015    -23.69  0.00 
875 2122 Sahoon Khan 2014-Vakrangee-Bharatpur Atal Sewa Kendra Dunawal,Nagar Bharatpur   9166731376  Active  14-05-2015    -303.66  0.00 
876 2124 Prabhu Dayal Sharma 2014-Vakrangee-Bharatpur Atal Sewa Kendra,Gangawak Nagar,Bharatpur undefined  9828574840  Active  14-05-2015    .88  0.00 
877 2125 Banti 2014-Vakrangee-Bharatpur Atal Sewa Kendra,Semla Kalan Nagar,Bharatpur undefined  9772722836  -15  Active  14-05-2015    .25  0.00 
878 2126 Ashutosh Soni 2014-Vakrangee-Bharatpur Sarafa Gali,Near Laxman Mandir Bharatpur   8963877343  Active  14-05-2015    .59  0.00 
879 2127 Sandeep Kumar 2014-Vakrangee-Bharatpur Atal Sewa Kendra Dharsoni,Weir Bharatpur   9667356195  Active  14-05-2015    174.53  0.00 
880 2128 Bhoora Singh 2014-Vakrangee-Bharatpur Atal Sewa Kendra,Santrook Kumher,Bharatpur undefined  7823891881  1326  Active  14-05-2015    1180.53  0.00 
881 2141 Kapil Kumar 2014-Vakrangee-Bharatpur Near Govt.Hospital,Jurhera Kaman,Bharatpur undefined  9649753604  Active  18-05-2015    25.76  0.00 
882 2142 Khalid Hussain 2014-Vakrangee-Bharatpur Kherli Manna,Kaman Bharatpur   9649262885  Active  18-05-2015    .97  0.00 
883 2143 Pavan Kumar 2014-Vakrangee-Bharatpur ATAL SEVA KENDRA, COLLACTRATE CAMPUS  BHARATPUR   9252067407  Active  18-05-2015    .87  0.00 
884 2187 Lakhan Lal 2014-Vakrangee-Bharatpur Village Post Pathena Bhusawar    9694417929  Active  29-05-2015    7.63  0.00 
885 2193 Mukhiya Rahul Singh 2014-Vakrangee-Bharatpur Village Gaonri Jurhara Kaman Bharatpur    9783867474  Active  29-05-2015    339.27  0.00 
886 2196 Dharmendra Singh 2014-Vakrangee-Bharatpur Jagner Road, Gram Panchayat Roopwas, Bharatpur    9610076382  15  Active  29-05-2015    45.56  0.00 
887 2197 Arif 2014-Vakrangee-Bharatpur Sihawali,Nagar Bharatpur   9660444440  Active  29-05-2015    2553.88  0.00 
888 2198 Nirottam Lal 2014-Vakrangee-Bharatpur Atal Seva Kendra Khohara,Bayana Bharatpur   9887290212  Active  29-05-2015    .8  0.00 
889 2199 Lokendra Singh 2014-Vakrangee-Bharatpur Atal Seva Kendra Kherli Khdasiya,Bayana Bharatpur   8426988602  Active  29-05-2015    .29  0.00 
890 2203 Savitri 2014-Vakrangee-Bharatpur Atal Seva Kendra Kuchawati    9784727929  111  Active  29-05-2015    .38  0.00 
891 2204 Bhim Singh 2014-Vakrangee-Bharatpur Mahamadpura,Bayana Bharatpur   9982460404  Active  29-05-2015    .32  0.00 
892 2205 Suresh Chand 2014-Vakrangee-Bharatpur Atal Seva Kendra Beerampura,Bayana Bharatpur   7891896889  Active  29-05-2015    1.61  0.00 
893 2207 Subhash 2014-Vakrangee-Bharatpur Dayana Ka Bas,Khaohri Nagar,Bharatpur undefined  9983881096  Active  29-05-2015    .81  0.00 
894 2209 Jahira Khan 2014-Vakrangee-Bharatpur Jhantli,Sihawali Nagar,Bharatpur undefined  9610081206  Active  29-05-2015    .42  0.00 
895 2211 Satyendra Singh 2014-Vakrangee-Bharatpur Atal Sewa Kendra, Vinuan, GP- Vinuan, Roopwas    9950151650  69  Active  29-05-2015    325.69  0.00 
896 2215 Kailashee Ram 2014-Vakrangee-Bharatpur Atal Sewa Kendra Madoli,Roopwas Bharatpur   9694385142  Active  29-05-2015    .36  0.00 
897 2218 Bachhu Singh 2014-Vakrangee-Bharatpur Jeewad,Weir Bharatpur   9785835210  75  Active  29-05-2015    18.45  0.00 
898 2219 Sushil Goyal 2014-Vakrangee-Bharatpur Jatmasi Road B-24, Tehsil- Roopwas, Dist- Bharatpur     9001409635  Active  29-05-2015    -22.21  0.00 
899 2249 Sanjay Singh Shastri 2014-Vakrangee-Bharatpur Naunera,Kaman Bharatpur   9828101520  Active  03-06-2015    1.62  0.00 
900 2250 Harish 2014-Vakrangee-Bharatpur Naogaon,Kaman Bharatpur   9950025358  Active  04-06-2015    -169.54  0.00 
901 2268 Devendra Singh 2014-Vakrangee-Bharatpur Baroli Chhar,Nadbai Bharatpur   8440088543  15  Active  15-06-2015    293.55  0.00 
902 2269 Mahendra Kumar 2014-Vakrangee-Bharatpur Mathura Gate,Gulal Kund Bharatpur   9351868666  Active  15-06-2015    .55  0.00 
903 2270 Bhoopendra Kumar 2014-Vakrangee-Bharatpur Atal Seva Kendra Pasopa    9166080776  Active  15-06-2015    8971.81  0.00 
904 2271 Yogesh Kumar 2014-Vakrangee-Bharatpur Near Hospital Janoothar Deeg Bharatpur    8104013819  Active  15-06-2015    .7  0.00 
905 2272 Ankit Chahar 2014-Vakrangee-Bharatpur Near Manav Bharati School Anah Gate Bharatpur    9782561418  Active  15-06-2015    .02  0.00 
906 2273 Nirbhay Singh 2014-Vakrangee-Bharatpur Near N S Deshwal School Sawer Bharatpur    9929000140  Active  15-06-2015    84.87  0.00 
907 2274 Krishan Mohan 2014-Vakrangee-Bharatpur Dumriya ,Roopwas Bharatpur   9982321122  Active  16-06-2015    .43  0.00 
908 2275 Sateesh Chand 2014-Vakrangee-Bharatpur Sahana,Roopwas Bharatpur   9799457542  Active  16-06-2015    3.06  0.00 
909 2276 Gyan Deep Nagar 2014-Vakrangee-Bharatpur Atal Seva Kendra Khoh    8741950051  Active  16-06-2015    2800.58  0.00 
910 2278 Majid Khan 2014-Vakrangee-Bharatpur Papra,Kaman Bharapur   8824067574  -15  Active  16-06-2015    -149.05  0.00 
911 2279 Manish Kumar 2014-Vakrangee-Bharatpur Near Thesil Bapu Bazar Nagar Bharatpur    9694286686  Active  16-06-2015    -34.05  0.00 
912 2280 Raju Saini 2014-Vakrangee-Bharatpur Village Nyamadpur Post Dharsoni Weir Bharatpur    9414489608  10  Active  16-06-2015    9.6  0.00 
913 2282 Sandeep Agrawal 2014-Vakrangee-Bharatpur Opp. Bank Of Baroda Station Road New Mandi Bharatpur    9828535797  214  Active  16-06-2015    303.77  0.00 
914 2283 Mubarik Ali 2014-Vakrangee-Bharatpur G.P SABLANA, KAMAN  BHARATPUR   9610209782  Active  16-06-2015    44.39  0.00 
915 2284 Chetram 2014-Vakrangee-Bharatpur ATAL SEVA KENDRA, SUHANS  WEIR, BHARATPUR undefined  9929685760  Active  16-06-2015    123.14  0.00 
916 2291 Rajendra Singh 2014-Vakrangee-Bharatpur PAPRERA, KUMHER  BHARATPUR   9587451131  Active  19-06-2015    .64  0.00 
917 2292 Arvind Kumar Kansal 2014-Vakrangee-Bharatpur RAM MOBILE, GOAL BAGH ROAD  BHARATPUR   8955888421  Active  19-06-2015    .79  0.00 
918 2339 Manish Kumar 2014-Vakrangee-Bharatpur Near Chand Pol Gate Namak Katra Bharatpur    00000  Active  14-07-2015    .51  0.00 
919 2340 Santosh Kumar 2014-Vakrangee-Bharatpur Kasai Pada ,Ward No 4  Bayana,Bharatpur undefined  9587921359  Active  14-07-2015    .12  0.00 
920 2341 Vishwajit Singh 2014-Vakrangee-Bharatpur Deeg Bharatpur     7891847685  Active  14-07-2015    105.82  0.00 
921 2342 Kayyum Khan 2014-Vakrangee-Bharatpur G.P. PAI, KAMAN  BHARATPUR   8696790119  453  Active  14-07-2015    7.58  0.00 
922 2347 Irshad Ahmad 2014-Vakrangee-Bharatpur ATAL SEVA KENDRA, JURHERA  PAHARI, BHARATPUR undefined  9413878652  Active  14-07-2015    6.61  0.00 
923 2348 Sajid Khan 2014-Vakrangee-Bharatpur ATAL SEVA KENDRA, KHOHRI  NAGAR, BHARATPUR undefined  9461629712  Active  14-07-2015    .84  0.00 
924 2349 Harpratap Singh 2014-Vakrangee-Bharatpur LUDHAWAI, SEWAR  BHARATPUR   9829758742  139  Active  14-07-2015    466.03  0.00 
925 2350 Ram Kumar 2014-Vakrangee-Bharatpur BHONT, ROOPBAS  BHARATPUR   8696041322  Active  14-07-2015    .08  0.00 
926 2351 Brij Raj Singh 2014-Vakrangee-Bharatpur G.P. FATEHPUR, ROOPBAS  BHARATPUR   9413313148  611  Active  14-07-2015    45.53  0.00 
927 2380 Ravi Kant 2014-Vakrangee-Bharatpur ATAL SEVA KENDRA, SALAIMPUR KHURD  WEIR, BHARATPUR undefined  7891095224  Active  29-07-2015    .18  0.00 
928 2381 Shivkant Sharma 2014-Vakrangee-Bharatpur WARD NO. 4, NAGAR  BHARATPUR   Active  29-07-2015    .81  0.00 
929 2382 Prem Singh Lodhi 2014-Vakrangee-Bharatpur ATAL SEVA KENDRA, BHAVANPURA  ROOPBAS, BHARATPUR undefined  7023122626  Active  29-07-2015    .6  0.00 
930 2383 Bharat Singh 2014-Vakrangee-Bharatpur ATAL SEVA KENDRA, DEEWALI  BHUSAWAR, BHARATPUR undefined  05643-30832  Active  29-07-2015    576.64  0.00 
931 2384 Ved Prakash 2014-Vakrangee-Bharatpur Atal Seva Kendra,Pichoona Rupbas,Bharatpur undefined  9887908951  Active  29-07-2015    .46  0.00 
932 2385 Ajayveer Singh 2014-Vakrangee-Bharatpur Dahara,Kumher Bharatpur   9414327298  Active  29-07-2015    .66  0.00 
933 2386 Yogesh Kumar 2014-Vakrangee-Bharatpur BARAULI CHHAR, NADBAI  BHARATPUR   9413301713  Active  29-07-2015    -335.63  0.00 
934 2390 Yashpal Sharma 2014-Vakrangee-Bharatpur G.P. GAONRI, SEWAR  BHARATPUR   9828736992  Active  03-08-2015    16.7  0.00 
935 2391 Vijay Singh 2014-Vakrangee-Bharatpur Belara Kalan,Kumher Bharatpur   8696019883  Active  03-08-2015    .86  0.00 
936 2392 Laxmi Kant Sharma 2014-Vakrangee-Bharatpur UCHCHAIN, ROOPBAS  BHARATPUR   8502803005  Active  03-08-2015    .68  0.00 
937 2406 Devesh Kumar 2014-Vakrangee-Bharatpur INFRONT OF FOREST DEPT. KACHAIRI ROAD, BAYANA  BHARATPUR   9887711750  Active  05-08-2015    .41  0.00 
938 2408 Raju Kumar Meena 2014-Vakrangee-Bharatpur Near Of Old Govt. Hospital, Uchchain  Roopbas, Bharatpur undefined  9461645137  Active  05-08-2015    .47  0.00 
939 2409 Govind 2014-Vakrangee-Bharatpur Tehsil Road, Kumher  Bharatpur   9460290631  Active  05-08-2015    .29  0.00 
940 2410 Virpal Singh 2014-Vakrangee-Bharatpur G.P. Sinsini, Deeg  Bharatpur   9509213860  Active  05-08-2015    16.87  0.00 
941 2411 Raj Bahadur 2014-Vakrangee-Bharatpur Nagla Tula Road Rudabal    274384  Active  05-08-2015    .77  0.00 
942 2414 Hakim Singh 2014-Vakrangee-Bharatpur Atal Seva Kendra Ludhbai Sewar Bharatpur    9694525781  147  Active  05-08-2015    76.74  0.00 
943 2415 Om Prakash 2014-Vakrangee-Bharatpur Mori Mohalla Kaman Bypass Road Deeg Bharatpur    8739885215  30  Active  05-08-2015    298.52  0.00 
944 2416 Gyanendra Singh 2014-Vakrangee-Bharatpur Chetna Path Kaman Gate Deeg    9785184667  Active  05-08-2015    33.32  0.00 
945 2417 Yogesh Kumar 2014-Vakrangee-Bharatpur Infront Of MSJ Collage, Bharatpur    9982833443  Active  05-08-2015    -13.41  0.00 
946 2419 Sohan Singh 2014-Vakrangee-Bharatpur Kathwara Nagar Bharatpur    9636964732  Active  05-08-2015    .25  0.00 
947 2420 Taiyab Khan 2014-Vakrangee-Bharatpur Gulpara Nagar Bharatpur    9461044503  Active  05-08-2015    .46  0.00 
948 2427 Shahid 2014-Vakrangee-Bharatpur Pahari, Bharatpur  Rajasthan   9001159127  Active  10-08-2015    .09  0.00 
949 2437 Pankaj Foujdar 2014-Vakrangee-Bharatpur Atal Seva Kendra Bandha Chot    9929121238  Active  18-08-2015    930.48  0.00 
950 2438 Rajesh Kumar 2014-Vakrangee-Bharatpur Village Kharari Bayana Bharatpur    9636395491  Active  18-08-2015    .8  0.00 
951 2440 Yogesh Kumar Sharma 2014-Vakrangee-Bharatpur VPO Sihawali Nagar Bharatpur    9928266413  Active  18-08-2015    63.33  0.00 
952 2441 Ravi Kumar Sharma 2014-Vakrangee-Bharatpur Near PNB Januthar Deeg Bharatpur    9460741539  43  Active  18-08-2015    9.21  0.00 
953 2443 Vinod Kumar 2014-Vakrangee-Bharatpur Atal Seva Kendra Brahmbad,Bayana Bharatpur   9950359214  Active  18-08-2015    .05  0.00 
954 2444 Mahendra Singh Jatav 2014-Vakrangee-Bharatpur Vill-Sent,Kumher Bharatpur   1234  Active  18-08-2015    .49  0.00 
955 2463 Prakash Singh 2014-Vakrangee-Bharatpur VPO Bodoli Dehar Pahari    9875114946  Active  27-08-2015    317.03  0.00 
956 2464 Rahul Katara 2014-Vakrangee-Bharatpur Bhusawar Gate Weir Bharatpur    8946905980  Active  27-08-2015    .76  0.00 
957 2465 Nirbhay Saini 2014-Vakrangee-Bharatpur Atal Seva Kendra Ballabhgarh Bhusawar    8104633806  Active  27-08-2015    .41  0.00 
958 2470 Upendra Singh 2014-Vakrangee-Bharatpur G.P. Fulwara, Sewar  Bharatpur   7792974800  132  Active  28-08-2015    .2  0.00 
959 2472 Madhav Singh 2014-Vakrangee-Bharatpur Bansi Khurd, Dhanota  Sewar, Bharatpur undefined  8963049020  198  Active  28-08-2015    -.98  0.00 
960 2474 Ajay Pal Singh 2014-Vakrangee-Bharatpur Bahnera, Uncha Nagla  Sewar, Bharatpur undefined  9799242595  Active  28-08-2015    .39  0.00 
961 2477 Bhola 2014-Vakrangee-Bharatpur Milsawa Roopwas Bharatpur    9660914947  Active  28-08-2015    33.92  0.00 
962 2478 Manoj Kumar Sharma 2014-Vakrangee-Bharatpur Rupam Lauge Ke Samne, Saras Chauraha  Bharatpur   9828687888  Active  28-08-2015    .06  0.00 
963 2479 Ajrudin 2014-Vakrangee-Bharatpur Sahsan, Pahari  Bharatpur   7023045400  Active  28-08-2015    .56  0.00 
964 2480 Bhagawan Singh 2014-Vakrangee-Bharatpur G.P. Ajan, Kumher  Bharatpur   9950455874  Active  28-08-2015    .26  0.00 
965 2504 Tej Singh 2014-Vakrangee-Bharatpur G.P. Undra, Sewar  Bharatpur   9680822189  Active  10-09-2015    62.97  0.00 
966 2505 Amitabh Singh 2014-Vakrangee-Bharatpur Khangri, Nadbai  Bharatpur   9983338565  872  Active  10-09-2015    1258.57  0.00 
967 2507 Surendra Singh 2014-Vakrangee-Bharatpur Near Of PNB Bank, Sinsini  Deeg, Bharatpur undefined  8058715860  Active  10-09-2015    -.99  0.00 
968 2510 Sunil Kumar Sharma 2014-Vakrangee-Bharatpur Near Panchayati Samati Weir     7820919285  Active  10-09-2015    0.00 
969 2513 Raju 2014-Vakrangee-Bharatpur Nagar, Tehsil Nagar  Bharatpur   8441902713  Active  10-09-2015    .51  0.00 
970 2514 Ajay Vir Singh 2014-Vakrangee-Bharatpur Near RTO Office, Bharatpur    7568340316  Active  10-09-2015    -259.62  0.00 
971 2527 Girdhari 2014-Vakrangee-Bharatpur Atal Seva Kendra Khera Thakur    9828885390  Active  18-09-2015    .26  0.00 
972 2536 Shakil 2014-Vakrangee-Bharatpur Kherli Manna Pahari Bharatpur    9828263823  80  Active  01-10-2015    1028.4  0.00 
973